• Join FlightAware (Why Join?)
  • Login
  • US Flag 
05:33AM EDT


 

Airport Tracker/Info


-or-


 

Live Flight TrackerFlight Track Log ✈ AFL150 ✈ 19-Oct-2013 ✈ UUEE / SVO - MUHA / HAV

Flight Track Log - Related Links

Times and Time Zones

All times are in EDT time to prevent confusion due to time zone crossing. See the AFL150 flight status page for this flight to view local times or setup timezone preferences in your user account.

Time Position Orientation Groundspeed Altitude Reporting Facility
EDT Latitude Longitude Course Direction KTS MPH feet Rate Location/Type
06:36AM 55.9650 37.3730 253° West 167 192 1,700  Level FlightAware
06:37AM 55.9600 37.3400 255° West 165 190 2,700 1,740 Climbing FlightAware
06:37AM 55.9560 37.3120 256° West 186 214 3,000 960 Climbing FlightAware
06:37AM 55.9510 37.2760 256° West 206 237 3,400 1,020 Climbing FlightAware
06:38AM 55.9470 37.2430 258° West 233 268 3,700 1,380 Climbing FlightAware
06:38AM 55.9430 37.2110 257° West 238 274 4,200 2,100 Climbing FlightAware
06:38AM 55.9470 37.1690 280° West 239 275 5,200 2,400 Climbing FlightAware
06:39AM 55.9520 37.1280 282° West 244 281 6,000 2,760 Climbing FlightAware
06:39AM 55.9580 37.0830 283° West 241 277 7,200 2,640 Climbing FlightAware
06:39AM 55.9610 37.0580 282° West 245 282 7,600 2,160 Climbing FlightAware
06:40AM 55.9670 37.0110 283° West 253 291 8,500 2,220 Climbing FlightAware
06:40AM 55.9710 36.9810 283° West 257 296 9,100 2,220 Climbing FlightAware
06:41AM 55.9820 36.8920 282° West 268 308 10,600 1,620 Climbing FlightAware
06:41AM 55.9910 36.8130 282° West 299 344 11,200 1,080 Climbing FlightAware
06:42AM 56.0030 36.7170 283° West 329 379 11,900 1,620 Climbing FlightAware
06:42AM 56.0150 36.6210 283° West 336 387 13,200 2,100 Climbing FlightAware
06:43AM 56.0250 36.5360 282° West 344 396 14,300 2,100 Climbing FlightAware
06:43AM 56.0370 36.4330 282° West 348 400 15,600 2,040 Climbing FlightAware
06:44AM 56.0490 36.3310 282° West 356 410 16,800 1,980 Climbing FlightAware
06:45AM 56.0620 36.2240 282° West 363 418 18,000 1,920 Climbing FlightAware
06:45AM 56.0730 36.1300 282° West 365 420 19,000 1,800 Climbing FlightAware
06:46AM 56.0850 36.0250 282° West 370 426 20,100 1,800 Climbing FlightAware
06:46AM 56.0980 35.9160 282° West 375 432 21,200 1,680 Climbing FlightAware
06:47AM 56.1080 35.8260 281° West 379 436 22,000 1,500 Climbing FlightAware
06:48AM 56.1210 35.7100 281° West 384 442 22,900 1,380 Climbing FlightAware
06:48AM 56.1340 35.5970 282° West 391 450 23,700 1,320 Climbing FlightAware
06:49AM 56.1480 35.4760 282° West 398 458 24,500 1,200 Climbing FlightAware
06:49AM 56.1600 35.3610 281° West 402 463 25,200 1,140 Climbing FlightAware
06:50AM 56.1780 35.2030 282° West 408 470 26,100 1,200 Climbing FlightAware
06:51AM 56.1880 35.1050 280° West 411 473 26,800 1,200 Climbing FlightAware
06:51AM 56.2010 34.9890 281° West 415 478 27,400 960 Climbing FlightAware
06:52AM 56.2150 34.8500 280° West 421 484 28,000 960 Climbing FlightAware
06:52AM 56.2280 34.7300 281° West 425 489 28,600 960 Climbing FlightAware
06:53AM 56.2430 34.5890 281° West 429 494 29,200 780 Climbing FlightAware
06:54AM 56.2550 34.4670 280° West 434 499 29,600 900 Climbing FlightAware
06:54AM 56.2680 34.3430 281° West 430 495 30,300 1,260 Climbing FlightAware
06:55AM 56.2800 34.2240 280° West 426 490 31,100 1,200 Climbing FlightAware
06:55AM 56.2920 34.0990 280° West 425 489 31,700 840 Climbing FlightAware
06:56AM 56.3040 33.9790 280° West 428 493 32,100 720 Climbing FlightAware
06:57AM 56.3160 33.8540 280° West 426 490 32,600 1,020 Climbing FlightAware
06:57AM 56.3280 33.7350 280° West 423 487 33,300 1,080 Climbing FlightAware
06:58AM 56.3400 33.6120 280° West 417 480 33,900 1,020 Climbing FlightAware
06:58AM 56.3500 33.5030 279° West 413 475 34,600 720 Climbing FlightAware
06:59AM 56.3630 33.3580 279° West 414 476 34,900 420 Climbing FlightAware
07:00AM 56.3770 33.2160 280° West 417 480 35,200 480 Climbing FlightAware
07:01AM 56.3940 33.0250 279° West 420 483 35,700 480 Climbing FlightAware
07:01AM 56.3960 33.0050 280° West 416 479 36,000 180 Climbing FlightAware
07:02AM 56.4180 32.7550 279° West 415 478 36,000  Level FlightAware
07:03AM 56.4270 32.6470 279° West 415 478 36,000  Level FlightAware
07:03AM 56.4370 32.5420 280° West 415 478 36,000  Level FlightAware
07:04AM 56.4500 32.3870 279° West 414 476 36,000  Level FlightAware
07:04AM 56.4610 32.2510 278° West 413 475 36,000  Level FlightAware
07:05AM 56.4710 32.1350 279° West 414 476 36,000  Level FlightAware
07:06AM 56.4800 32.0220 278° West 415 478 36,000  Level FlightAware
07:06AM 56.4900 31.8910 278° West 415 478 36,000  Level FlightAware
07:07AM 56.4980 31.7860 278° West 415 478 36,000  Level FlightAware
07:08AM 56.5060 31.6810 278° West 415 478 36,000  Level FlightAware
07:08AM 56.5150 31.5750 279° West 415 478 36,000  Level FlightAware
07:08AM 56.4180 32.7550 98° East 36,000  Level FlightAware
07:09AM 56.5320 31.3660 279° West 410 472 36,000  Level FlightAware
07:09AM 56.5440 31.2350 279° West 411 473 36,000  Level FlightAware
07:10AM 56.5610 31.1090 284° West 411 473 36,000  Level FlightAware
07:11AM 56.5810 30.9640 284° West 411 473 36,000  Level FlightAware
07:11AM 56.6260 30.9160 330° Northwest 413 475 36,000  Level FlightAware
07:12AM 56.6680 30.8240 310° West 411 473 36,000  Level FlightAware
07:12AM 56.7070 30.7430 311° West 410 472 36,000  Level FlightAware
07:13AM 56.7490 30.6340 305° West 410 472 36,000  Level FlightAware
07:13AM 56.7840 30.5410 305° West 409 471 36,000  Level FlightAware
07:14AM 56.8170 30.4530 304° West 408 470 36,000  Level FlightAware
07:15AM 56.8540 30.3540 304° West 410 472 36,000  Level FlightAware
07:15AM 56.8990 30.2320 304° West 412 474 36,000  Level FlightAware
07:16AM 56.9300 30.1470 304° West 409 471 36,000  Level FlightAware
07:16AM 56.9640 30.0550 304° West 407 468 36,000  Level FlightAware
07:17AM 57.0040 29.9460 304° West 404 465 36,000  Level FlightAware
07:17AM 57.0380 29.8520 304° West 401 461 36,000  Level FlightAware
07:18AM 57.0750 29.7490 303° West 400 460 36,000  Level FlightAware
07:19AM 57.1180 29.6280 303° West 401 461 36,000  Level FlightAware
07:19AM 57.1610 29.5070 303° West 399 459 36,000  Level FlightAware
07:20AM 57.1950 29.4140 304° West 397 457 36,000  Level FlightAware
07:21AM 57.2320 29.3070 303° West 395 455 36,000  Level FlightAware
07:21AM 57.2660 29.2110 303° West 395 455 36,000  Level FlightAware
07:22AM 57.3000 29.1150 303° West 395 455 36,000  Level FlightAware
07:22AM 57.3330 29.0220 303° West 396 456 36,000  Level FlightAware
07:23AM 57.3690 28.9160 302° West 396 456 36,000  Level FlightAware
07:23AM 57.4000 28.8280 303° West 394 453 36,000  Level FlightAware
07:24AM 57.4430 28.7050 303° West 386 444 36,000  Level FlightAware
07:25AM 57.4780 28.6020 302° West 385 443 36,000  Level FlightAware
07:25AM 57.5060 28.5210 303° West 383 441 36,000  Level FlightAware
07:26AM 57.5420 28.4160 303° West 385 443 36,000  Level FlightAware
07:27AM 57.5750 28.3190 302° West 384 442 36,000  Level FlightAware
07:27AM 57.6060 28.2280 302° West 382 440 36,000  Level FlightAware
07:28AM 57.6380 28.1320 302° West 384 442 36,000  Level FlightAware
07:28AM 57.6740 28.0260 302° West 382 440 36,000  Level FlightAware
07:29AM 57.7080 27.9260 303° West 380 437 36,000  Level FlightAware
07:29AM 57.7410 27.8270 302° West 378 435 36,000  Level FlightAware
07:30AM 57.7710 27.7350 301° West 376 433 36,000  Level FlightAware
07:31AM 57.8050 27.6330 302° West 374 430 36,000  Level FlightAware
07:31AM 57.8350 27.5380 301° West 373 429 36,000  Level FlightAware
07:32AM 57.8550 27.4380 291° West 375 432 36,000  Level FlightAware
07:32AM 57.8770 27.3290 291° West 375 432 36,000  Level FlightAware
07:33AM 57.8990 27.2220 291° West 376 433 36,000  Level FlightAware
07:34AM 57.9220 27.1100 291° West 377 434 36,000  Level FlightAware
07:34AM 57.9420 27.0100 291° West 377 434 36,000  Level FlightAware
07:35AM 57.9630 26.9040 291° West 376 433 36,000  Level FlightAware
07:35AM 57.9860 26.7900 291° West 376 433 36,000  Level FlightAware
07:36AM 58.0070 26.6810 290° West 378 435 36,000  Level FlightAware
07:36AM 58.0260 26.5840 290° West 380 437 36,000  Level FlightAware
07:37AM 58.0480 26.4700 290° West 381 438 36,000  Level FlightAware
07:38AM 58.0700 26.3560 290° West 382 440 36,000  Level FlightAware
07:38AM 58.0890 26.2580 290° West 384 442 36,000  Level FlightAware
07:39AM 58.1110 26.1430 290° West 383 441 36,000  Level FlightAware
07:39AM 58.1320 26.0360 290° West 381 438 36,000  Level FlightAware
07:40AM 58.1530 25.9220 289° West 377 434 36,000  Level FlightAware
07:40AM 58.1740 25.8150 290° West 373 429 36,000  Level FlightAware
07:41AM 58.1940 25.7060 289° West 369 425 36,000  Level FlightAware
07:42AM 58.2130 25.6040 290° West 364 419 36,000  Level FlightAware
07:42AM 58.2330 25.5000 290° West 361 415 36,000  Level FlightAware
07:43AM 58.2520 25.3950 289° West 359 413 36,000  Level FlightAware
07:43AM 58.2720 25.2870 289° West 358 412 36,000  Level FlightAware
07:44AM 58.2910 25.1840 289° West 357 411 36,000  Level FlightAware
07:45AM 58.3080 25.0850 288° West 357 411 36,000  Level FlightAware
07:45AM 58.3270 24.9830 290° West 356 410 36,000  Level FlightAware
07:46AM 58.3460 24.8760 289° West 353 406 36,000  Level FlightAware
07:46AM 58.3650 24.7700 289° West 353 406 36,000  Level FlightAware
07:47AM 58.3830 24.6680 289° West 351 404 36,000  Level FlightAware
07:47AM 58.3990 24.5760 288° West 351 404 36,000  Level FlightAware
07:48AM 58.4190 24.4650 289° West 350 403 36,000  Level FlightAware
07:49AM 58.4350 24.3620 287° West 350 403 36,000  Level FlightAware
07:49AM 58.4500 24.2640 286° West 350 403 36,000  Level FlightAware
07:50AM 58.4660 24.1570 286° West 349 402 36,000  Level FlightAware
07:50AM 58.4820 24.0480 286° West 348 400 36,000  Level FlightAware
07:51AM 58.4970 23.9470 286° West 346 398 36,000  Level FlightAware
07:52AM 58.5120 23.8450 286° West 343 395 36,000  Level FlightAware
07:52AM 58.5260 23.7510 286° West 338 389 36,000  Level FlightAware
07:53AM 58.5420 23.6430 286° West 338 389 36,000  Level FlightAware
07:53AM 58.5570 23.5400 286° West 338 389 36,000  Level FlightAware
07:54AM 58.5710 23.4460 286° West 338 389 36,000  Level FlightAware
07:55AM 58.5860 23.3410 285° West 336 387 36,000  Level FlightAware
07:55AM 58.6000 23.2410 285° West 338 389 36,000  Level FlightAware
07:56AM 58.6140 23.1400 285° West 337 388 36,000  Level FlightAware
07:56AM 58.6270 23.0480 285° West 336 387 36,000  Level FlightAware
07:57AM 58.6420 22.9430 285° West 337 388 36,000  Level FlightAware
07:57AM 58.6570 22.8350 285° West 336 387 36,000  Level FlightAware
07:58AM 58.6710 22.7360 285° West 335 386 36,000  Level FlightAware
07:59AM 58.6840 22.6430 285° West 333 383 36,000  Level FlightAware
07:59AM 58.6990 22.5350 285° West 333 383 36,000  Level FlightAware
08:00AM 58.7110 22.4450 284° West 333 383 36,000  Level FlightAware
08:00AM 58.7250 22.3430 285° West 333 383 36,000  Level FlightAware
08:01AM 58.7400 22.2250 284° West 334 384 36,000  Level FlightAware
08:02AM 58.7550 22.1200 285° West 335 386 36,000  Level FlightAware
08:02AM 58.7680 22.0210 284° West 336 387 36,000  Level FlightAware
08:03AM 58.7800 21.9260 284° West 335 386 36,000  Level FlightAware
08:03AM 58.7950 21.8160 285° West 335 386 36,000  Level FlightAware
08:04AM 58.8070 21.7190 283° West 334 384 36,000  Level FlightAware
08:05AM 58.8200 21.6210 284° West 334 384 36,000  Level FlightAware
08:05AM 58.8330 21.5160 283° West 334 384 36,000  Level FlightAware
08:06AM 58.8450 21.4210 284° West 334 384 36,000  Level FlightAware
08:06AM 58.8600 21.3080 284° West 333 383 36,000  Level FlightAware
08:07AM 58.8770 21.2060 288° West 331 381 36,000  Level FlightAware
08:07AM 58.8920 21.1190 288° West 331 381 36,000  Level FlightAware
08:08AM 58.9090 21.0220 289° West 330 380 36,000  Level FlightAware
08:09AM 58.9250 20.9260 288° West 328 377 36,000  Level FlightAware
08:09AM 58.9410 20.8290 288° West 327 376 36,000  Level FlightAware
08:10AM 58.9580 20.7270 288° West 326 375 36,000  Level FlightAware
08:10AM 58.9740 20.6250 287° West 328 377 36,000  Level FlightAware
08:11AM 58.9880 20.5420 288° West 327 376 36,000  Level FlightAware
08:12AM 59.0090 20.4130 288° West 326 375 36,000  Level FlightAware
08:12AM 59.0230 20.3220 287° West 327 376 36,000  Level FlightAware
08:13AM 59.0400 20.2140 287° West 328 377 36,000  Level FlightAware
08:13AM 59.0540 20.1270 287° West 327 376 36,000  Level FlightAware
08:14AM 59.0710 20.0200 287° West 326 375 36,000  Level FlightAware
08:15AM 59.0840 19.9370 287° West 328 377 36,000  Level FlightAware
08:15AM 59.1020 19.8240 287° West 329 379 36,000  Level FlightAware
08:16AM 59.1170 19.7280 287° West 329 379 36,000  Level FlightAware
08:16AM 59.1310 19.6340 286° West 327 376 36,000  Level FlightAware
08:17AM 59.1470 19.5260 286° West 326 375 36,000  Level FlightAware
08:18AM 59.1630 19.4270 288° West 327 376 36,000  Level FlightAware
08:18AM 59.1770 19.3350 287° West 327 376 36,000  Level FlightAware
08:19AM 59.1920 19.2320 286° West 325 374 36,000  Level FlightAware
08:19AM 59.2060 19.1410 287° West 325 374 36,000  Level FlightAware
08:20AM 59.2250 19.0130 286° West 325 374 36,000  Level FlightAware
08:21AM 59.2400 18.9090 286° West 325 374 36,000  Level FlightAware
08:21AM 59.2530 18.8190 286° West 326 375 36,000  Level FlightAware
08:22AM 59.2680 18.7200 287° West 326 375 36,000  Level FlightAware
08:22AM 59.2820 18.6210 286° West 327 376 36,000  Level FlightAware
08:23AM 59.2950 18.5300 286° West 328 377 36,000  Level FlightAware
08:23AM 59.3100 18.4230 285° West 327 376 36,000  Level FlightAware
08:24AM 59.3230 18.3320 286° West 325 374 36,000  Level FlightAware
08:25AM 59.3380 18.2280 286° West 323 372 36,000  Level FlightAware
08:25AM 59.3530 18.1200 285° West 323 372 36,000  Level FlightAware
08:26AM 59.3660 18.0280 286° West 322 371 36,000  Level FlightAware
08:26AM 59.3800 17.9300 286° West 321 369 36,000  Level FlightAware
08:27AM 59.3940 17.8280 285° West 320 368 36,000  Level FlightAware
08:28AM 59.4070 17.7310 285° West 320 368 36,000  Level FlightAware
08:28AM 59.4210 17.6280 285° West 321 369 36,000  Level FlightAware
08:29AM 59.4330 17.5420 285° West 322 371 36,000  Level FlightAware
08:29AM 59.4470 17.4380 285° West 323 372 36,000  Level FlightAware
08:30AM 59.4600 17.3410 285° West 324 373 36,000  Level FlightAware
08:30AM 59.4730 17.2400 284° West 324 373 36,000  Level FlightAware
08:31AM 59.4870 17.1370 285° West 325 374 36,000  Level FlightAware
08:32AM 59.4980 17.0540 285° West 325 374 36,000  Level FlightAware
08:34AM 59.5755 16.6276 290° West  Level Estimated
08:34AM 59.5590 16.5810 290° West 330 380 36,000  Level FlightAware
08:35AM 59.6137 16.4136 290° West  Level Estimated
08:35AM 59.5720 16.4780 284° West 331 381 36,000  Level FlightAware
08:35AM 59.5830 16.3900 284° West 330 380 36,000  Level FlightAware
08:36AM 59.5970 16.2720 283° West 328 377 36,000  Level FlightAware
08:37AM 59.6100 16.1710 284° West 328 377 36,000  Level FlightAware
08:37AM 59.6230 16.0630 283° West 327 376 36,000  Level FlightAware
08:38AM 59.6350 15.9630 283° West 327 376 36,000  Level FlightAware
08:38AM 59.6460 15.8740 284° West 327 376 36,000  Level FlightAware
08:39AM 59.6590 15.7630 283° West 326 375 36,000  Level FlightAware
08:40AM 59.6710 15.6670 284° West 325 374 36,000  Level FlightAware
08:40AM 59.6820 15.5690 283° West 324 373 36,000  Level FlightAware
08:41AM 59.6980 15.4320 283° West 325 374 36,000  Level FlightAware
08:42AM 59.7290 15.1690 283° West 326 375 36,000  Level FlightAware
08:43AM 59.7490 14.9920 283° West 326 375 36,000  Level FlightAware
08:44AM 59.7610 14.8890 283° West 326 375 36,000  Level FlightAware
08:45AM 59.7720 14.7870 282° West 327 376 36,000  Level FlightAware
08:45AM 59.7840 14.6790 282° West 327 376 36,000  Level FlightAware
08:46AM 59.7910 14.6200 283° West 327 376 36,000  Level FlightAware
08:47AM 59.8110 14.4370 282° West 328 377 36,000  Level FlightAware
08:47AM 59.8210 14.3410 282° West 329 379 36,000  Level FlightAware
08:48AM 59.8330 14.2270 282° West 331 381 36,000  Level FlightAware
08:49AM 59.8670 13.9620 284° West 333 383 36,000  Level FlightAware
08:50AM 59.8820 13.8650 287° West 332 382 36,000  Level FlightAware
08:50AM 59.8980 13.7600 287° West 332 382 36,000  Level FlightAware
08:51AM 59.9110 13.6760 287° West 332 382 36,000  Level FlightAware
08:51AM 59.9240 13.5900 287° West 332 382 36,000  Level FlightAware
08:52AM 59.9430 13.4610 286° West 332 382 36,000  Level FlightAware
08:53AM 59.9580 13.3640 287° West 335 386 36,000  Level FlightAware
08:53AM 59.9730 13.2630 287° West 335 386 36,000  Level FlightAware
08:54AM 59.9890 13.1540 286° West 335 386 36,000  Level FlightAware
08:54AM 60.0030 13.0570 286° West 335 386 36,000  Level FlightAware
08:55AM 60.0190 12.9490 287° West 335 386 36,000  Level FlightAware
08:56AM 60.0340 12.8450 286° West 336 387 36,000  Level FlightAware
08:56AM 60.0490 12.7460 287° West 338 389 36,000  Level FlightAware
08:57AM 60.0620 12.6510 285° West 339 390 36,000  Level FlightAware
08:57AM 60.0750 12.5610 286° West 339 390 36,000  Level FlightAware
08:58AM 60.0900 12.4540 286° West 341 392 36,000  Level FlightAware
08:58AM 60.1040 12.3580 286° West 343 395 36,000  Level FlightAware
08:59AM 60.1200 12.2420 286° West 343 395 36,000  Level FlightAware
08:59AM 60.1340 12.1420 286° West 345 397 36,000  Level FlightAware
09:00AM 60.1480 12.0420 286° West 346 398 36,000  Level FlightAware
09:01AM 60.1660 11.9130 286° West 346 398 36,000  Level FlightAware
09:01AM 60.1800 11.8040 285° West 347 399 36,000  Level FlightAware
09:02AM 60.1940 11.7040 286° West 349 402 36,000  Level FlightAware
09:02AM 60.2090 11.5890 285° West 351 404 36,000  Level FlightAware
09:03AM 60.2240 11.4800 286° West 351 404 36,000  Level FlightAware
09:04AM 60.2400 11.3600 285° West 353 406 36,000  Level FlightAware
09:04AM 60.2540 11.2530 285° West 354 407 36,000  Level FlightAware
09:05AM 60.2700 11.1330 285° West 356 410 36,000  Level FlightAware
09:05AM 60.2830 11.0290 284° West 357 411 36,000  Level FlightAware
09:06AM 60.2970 10.9200 285° West 359 413 36,000  Level FlightAware
09:06AM 60.3100 10.8160 284° West 361 415 36,000  Level FlightAware
09:07AM 60.3250 10.6990 285° West 361 415 36,000  Level FlightAware
09:08AM 60.3400 10.5830 285° West 362 417 36,000  Level FlightAware
09:08AM 60.3550 10.4650 284° West 362 417 36,000  Level FlightAware
09:09AM 60.3700 10.3390 284° West 364 419 36,000  Level FlightAware
09:09AM 60.3830 10.2330 284° West 366 421 36,000  Level FlightAware
09:10AM 60.3970 10.1160 284° West 365 420 36,000  Level FlightAware
09:11AM 60.4120 9.9950 284° West 366 421 36,000  Level FlightAware
09:11AM 60.4220 9.9130 284° West 366 421 36,000  Level FlightAware
09:12AM 60.4400 9.7620 284° West 368 423 36,000  Level FlightAware
09:12AM 60.4530 9.6460 283° West 371 427 36,000  Level FlightAware
09:13AM 60.4670 9.5270 283° West 374 430 36,000  Level FlightAware
09:14AM 60.4810 9.4100 284° West 375 432 36,000  Level FlightAware
09:14AM 60.4950 9.2880 283° West 376 433 36,000  Level FlightAware
09:15AM 60.5090 9.1680 283° West 377 434 36,000  Level FlightAware
09:15AM 60.5220 9.0490 283° West 378 435 36,000  Level FlightAware
09:16AM 60.5360 8.9280 283° West 380 437 36,000  Level FlightAware
09:16AM 60.5490 8.8080 282° West 380 437 36,000  Level FlightAware
09:17AM 60.5610 8.7000 283° West 380 437 36,000  Level FlightAware
09:18AM 60.5780 8.5400 282° West 381 438 36,000  Level FlightAware
09:18AM 60.5920 8.4170 283° West 382 440 36,000  Level FlightAware
09:19AM 60.6050 8.2900 282° West 383 441 36,000  Level FlightAware
09:19AM 60.6190 8.1610 283° West 383 441 36,000  Level FlightAware
09:20AM 60.6320 8.0350 282° West 384 442 36,000  Level FlightAware
09:21AM 60.6440 7.9190 282° West 384 442 36,000  Level FlightAware
09:21AM 60.6560 7.8010 282° West 384 442 36,000  Level FlightAware
09:22AM 60.6700 7.6640 282° West 383 441 36,000  Level FlightAware
09:22AM 60.6810 7.5590 282° West 382 440 36,000  Level FlightAware
09:23AM 60.6940 7.4200 281° West 384 442 36,000  Level FlightAware
09:24AM 60.7070 7.2970 282° West 386 444 36,000  Level FlightAware
09:24AM 60.7180 7.1830 281° West 386 444 36,000  Level FlightAware
09:25AM 60.7290 7.0600 280° West 386 444 36,000  Level FlightAware
09:25AM 60.7420 6.9290 282° West 386 444 36,000  Level FlightAware
09:26AM 60.7550 6.7970 281° West 385 443 36,000  Level FlightAware
09:26AM 60.7650 6.6820 280° West 386 444 36,000  Level FlightAware
09:27AM 60.7770 6.5570 281° West 386 444 36,000  Level FlightAware
09:28AM 60.7880 6.4390 281° West 387 445 36,000  Level FlightAware
09:28AM 60.7990 6.3140 280° West 387 445 36,000  Level FlightAware
09:29AM 60.8100 6.1890 280° West 388 447 36,000  Level FlightAware
09:29AM 60.8220 6.0570 281° West 389 448 36,000  Level FlightAware
09:30AM 60.8330 5.9320 280° West 390 449 36,000  Level FlightAware
09:31AM 60.8440 5.8060 280° West 389 448 36,000  Level FlightAware
09:31AM 60.8560 5.6710 280° West 390 449 36,000  Level FlightAware
09:32AM 60.8660 5.5480 280° West 390 449 36,000  Level FlightAware
09:32AM 60.8780 5.4070 280° West 391 450 36,000  Level FlightAware
09:33AM 60.8880 5.2900 280° West 392 451 36,000  Level FlightAware
09:33AM 60.8980 5.1600 279° West 394 453 36,000  Level FlightAware
09:34AM 60.9090 5.0260 280° West 395 455 36,000  Level FlightAware
09:35AM 60.9190 4.8960 279° West 397 457 36,000  Level FlightAware
09:35AM 60.9290 4.7720 279° West 398 458 36,000  Level FlightAware
09:36AM 60.9400 4.6340 279° West 400 460 36,000  Level FlightAware
09:36AM 60.9500 4.4970 279° West 400 460 36,000  Level FlightAware
09:37AM 60.9600 4.3690 279° West 401 461 36,000  Level FlightAware
09:38AM 60.9690 4.2440 278° West 401 461 36,000  Level FlightAware
09:38AM 60.9790 4.1120 279° West 400 460 36,000  Level FlightAware
09:39AM 60.9880 3.9870 278° West 400 460 36,000  Level FlightAware
09:39AM 60.9980 3.8450 278° West 400 460 36,000  Level FlightAware
09:40AM 61.0080 3.7130 279° West 402 463 36,000  Level FlightAware
09:40AM 61.0160 3.5900 278° West 403 464 36,000  Level FlightAware
09:41AM 61.0260 3.4480 278° West 403 464 36,000  Level FlightAware
09:42AM 61.0340 3.3220 278° West 404 465 36,000  Level FlightAware
09:42AM 61.0430 3.1920 278° West 406 467 36,000  Level FlightAware
09:43AM 61.0520 3.0580 278° West 407 468 36,000  Level FlightAware
09:43AM 61.0590 2.9370 277° West 408 470 36,000  Level FlightAware
09:44AM 61.0690 2.7900 278° West 409 471 36,000  Level FlightAware
09:45AM 61.0780 2.6430 277° West 410 472 36,000  Level FlightAware
09:45AM 61.0860 2.5070 277° West 410 472 36,000  Level FlightAware
09:46AM 61.0930 2.3890 277° West 410 472 36,000  Level FlightAware
09:46AM 61.1020 2.2450 277° West 410 472 36,000  Level FlightAware
09:47AM 61.1100 2.1050 277° West 410 472 36,000  Level FlightAware
09:47AM 61.1180 1.9670 277° West 410 472 36,000  Level FlightAware
09:48AM 61.1250 1.8360 276° West 411 473 36,000  Level FlightAware
09:49AM 61.1340 1.6780 277° West 413 475 36,000  Level FlightAware
09:49AM 61.1410 1.5440 276° West 415 478 36,000  Level FlightAware
09:50AM 61.1490 1.3940 276° West 415 478 36,000  Level FlightAware
09:50AM 61.1560 1.2570 276° West 415 478 36,000  Level FlightAware
09:51AM 61.1640 1.1090 276° West 416 479 36,000  Level FlightAware
09:52AM 61.1700 0.9920 276° West 417 480 36,000  Level FlightAware
09:52AM 61.1770 0.8460 276° West 418 481 36,000  Level FlightAware
09:53AM 61.1830 0.7160 276° West 417 480 36,000  Level FlightAware
09:53AM 61.1900 0.5690 276° West 417 480 36,000  Level FlightAware
09:54AM 61.1960 0.4300 275° West 418 481 36,000  Level FlightAware
09:55AM 61.2020 0.2850 275° West 420 483 36,000  Level FlightAware
09:55AM 61.2090 0.1380 276° West 421 484 36,000  Level FlightAware
09:56AM 61.2180 0.0070 278° West 425 489 36,000  Level FlightAware
09:56AM 61.2370 -0.1290 286° West 427 491 36,000  Level FlightAware
09:57AM 61.2630 -0.2720 291° West 428 493 36,000  Level FlightAware
09:57AM 61.2850 -0.3960 290° West 429 494 36,000  Level FlightAware
09:58AM 61.3100 -0.5380 290° West 429 494 36,000  Level FlightAware
09:59AM 61.3340 -0.6780 290° West 431 496 36,000  Level FlightAware
09:59AM 61.3560 -0.8050 290° West 432 497 36,000  Level FlightAware
10:00AM 61.3800 -0.9460 290° West 432 497 36,000  Level FlightAware
10:00AM 61.4050 -1.0910 290° West 432 497 36,000  Level FlightAware
10:01AM 61.4290 -1.2360 289° West 432 497 36,000  Level FlightAware
10:02AM 61.4500 -1.3580 290° West 433 498 36,000  Level FlightAware
10:02AM 61.4730 -1.4990 289° West 432 497 36,000  Level FlightAware
10:03AM 61.4970 -1.6450 289° West 433 498 36,000  Level FlightAware
10:03AM 61.5170 -1.7650 289° West 433 498 36,000  Level FlightAware
10:04AM 61.5410 -1.9130 289° West 433 498 36,000  Level FlightAware
10:05AM 61.5640 -2.0570 289° West 434 499 36,000  Level FlightAware
10:05AM 61.5860 -2.1970 288° West 435 501 36,000  Level FlightAware
10:06AM 61.6060 -2.3220 289° West 435 501 36,000  Level FlightAware
10:06AM 61.6290 -2.4660 289° West 435 501 36,000  Level FlightAware
10:07AM 61.6530 -2.6170 289° West 434 499 36,000  Level FlightAware
10:08AM 61.6760 -2.7690 288° West 434 499 36,000  Level FlightAware
10:08AM 61.6990 -2.9210 288° West 437 503 36,000  Level FlightAware
10:09AM 61.7210 -3.0640 288° West 436 502 36,000  Level FlightAware
10:09AM 61.7430 -3.2080 288° West 436 502 36,000  Level FlightAware
10:10AM 61.7670 -3.3670 288° West 434 499 36,000  Level FlightAware
10:11AM 61.7880 -3.5110 287° West 434 499 36,000  Level FlightAware
10:11AM 61.7990 -3.5830 288° West 434 499 36,000  Level FlightAware
10:12AM 61.8220 -3.7460 287° West 434 499 36,000  Level FlightAware
10:12AM 61.8430 -3.8900 287° West 433 498 36,000  Level FlightAware
10:13AM 61.8740 -4.1010 287° West 430 495 36,000  Level FlightAware
10:14AM 61.8930 -4.2360 287° West 430 495 36,000  Level FlightAware
10:14AM 61.9130 -4.3810 286° West 431 496 36,000  Level FlightAware
10:15AM 61.9340 -4.5300 287° West 432 497 36,000  Level FlightAware
10:15AM 61.9540 -4.6780 286° West 433 498 36,000  Level FlightAware
10:16AM 61.9770 -4.8420 287° West 434 499 36,000  Level FlightAware
10:17AM 61.9950 -4.9740 286° West 435 501 36,000  Level FlightAware
10:17AM 62.0160 -5.1310 286° West 436 502 36,000  Level FlightAware
10:18AM 62.0350 -5.2780 285° West 438 504 36,000  Level FlightAware
10:18AM 62.0540 -5.4210 286° West 439 505 36,000  Level FlightAware
10:19AM 62.0730 -5.5620 286° West 442 509 36,000  Level FlightAware
10:20AM 62.0930 -5.7230 285° West 442 509 36,000  Level FlightAware
10:20AM 62.1130 -5.8720 286° West 441 507 36,000  Level FlightAware
10:21AM 62.1300 -6.0130 285° West 441 507 36,000  Level FlightAware
10:21AM 62.1530 -6.1920 285° West 440 506 36,000  Level FlightAware
10:22AM 62.1730 -6.3610 284° West 440 506 36,000  Level FlightAware
10:23AM 62.1960 -6.5460 285° West 442 509 36,000  Level FlightAware
10:23AM 62.2130 -6.6870 285° West 442 509 36,000  Level FlightAware
10:24AM 62.2330 -6.8500 285° West 445 512 36,000  Level FlightAware
10:25AM 62.2490 -6.9850 284° West 446 513 36,000  Level FlightAware
10:25AM 62.2670 -7.1380 284° West 446 513 36,000  Level FlightAware
10:26AM 62.2870 -7.3040 285° West 446 513 36,000  Level FlightAware
10:26AM 62.3060 -7.4750 284° West 446 513 36,000  Level FlightAware
10:27AM 62.3210 -7.6150 283° West 446 513 36,000  Level FlightAware
10:28AM 62.3410 -7.7790 285° West 448 516 36,000  Level FlightAware
10:28AM 62.3540 -7.9000 283° West 448 516 36,000  Level FlightAware
10:29AM 62.3810 -8.1400 284° West 449 517 36,000  Level FlightAware
10:30AM 62.3980 -8.2960 283° West 450 518 36,000  Level FlightAware
10:30AM 62.4130 -8.4370 283° West 451 519 36,000  Level FlightAware
10:31AM 62.4290 -8.5860 283° West 451 519 36,000  Level FlightAware
10:31AM 62.4500 -8.7880 283° West 450 518 36,000  Level FlightAware
10:32AM 62.4700 -8.9790 283° West 449 517 36,000  Level FlightAware
10:33AM 62.4840 -9.1250 282° West 449 517 36,000  Level FlightAware
10:34AM 62.4970 -9.2590 282° West 449 517 36,000  Level FlightAware
10:34AM 62.5100 -9.3940 282° West 449 517 36,000  Level FlightAware
10:35AM 62.5350 -9.6320 283° West 450 518 36,000  Level FlightAware
10:35AM 62.5510 -9.8020 282° West 452 520 36,000  Level FlightAware
10:36AM 62.5650 -9.9450 282° West 452 520 36,000  Level FlightAware
10:36AM 62.5810 -10.1120 282° West 452 520 36,000  Level FlightAware
10:37AM 62.5950 -10.2710 281° West 451 519 36,000  Level FlightAware
10:38AM 62.6090 -10.4230 281° West 451 519 36,000  Level FlightAware
10:38AM 62.6230 -10.5710 282° West 451 519 36,000  Level FlightAware
10:39AM 62.6370 -10.7300 281° West 452 520 36,000  Level FlightAware
10:39AM 62.6510 -10.8890 281° West 454 522 36,000  Level FlightAware
10:40AM 62.6640 -11.0390 281° West 454 522 36,000  Level FlightAware
10:41AM 62.6760 -11.1830 280° West 456 525 36,000  Level FlightAware
10:41AM 62.6910 -11.3560 281° West 457 526 36,000  Level FlightAware
10:42AM 62.7040 -11.5140 280° West 458 527 36,000  Level FlightAware
10:42AM 62.7160 -11.6570 280° West 459 528 36,000  Level FlightAware
10:43AM 62.7310 -11.8480 280° West 458 527 36,000  Level FlightAware
10:43AM 62.7430 -11.9940 280° West 459 528 36,000  Level FlightAware
10:44AM 62.7570 -12.1680 280° West 459 528 36,000  Level FlightAware
10:45AM 62.7680 -12.3130 279° West 459 528 36,000  Level FlightAware
10:45AM 62.7810 -12.4780 280° West 461 531 36,000  Level FlightAware
10:46AM 62.7910 -12.6230 279° West 461 531 36,000  Level FlightAware
10:46AM 62.8050 -12.8070 280° West 461 531 36,000  Level FlightAware
10:47AM 62.8160 -12.9640 279° West 461 531 36,000  Level FlightAware
10:48AM 62.8270 -13.1170 279° West 460 529 36,000  Level FlightAware
10:48AM 62.8390 -13.2760 279° West 461 531 36,000  Level FlightAware
10:49AM 62.8510 -13.4510 279° West 462 532 36,000  Level FlightAware
10:49AM 62.8600 -13.5930 278° West 462 532 36,000  Level FlightAware
10:50AM 62.8710 -13.7520 279° West 463 533 36,000  Level FlightAware
10:50AM 62.8810 -13.9140 278° West 464 534 36,000  Level FlightAware
10:51AM 62.8930 -14.0880 279° West 464 534 36,000  Level FlightAware
10:52AM 62.9030 -14.2560 278° West 465 535 36,000  Level FlightAware
10:52AM 62.9130 -14.4220 278° West 465 535 36,000  Level FlightAware
10:53AM 62.9230 -14.5740 278° West 465 535 36,000  Level FlightAware
10:53AM 62.9320 -14.7300 277° West 464 534 36,000  Level FlightAware
10:54AM 62.9410 -14.8880 277° West 464 534 36,000  Level FlightAware
10:55AM 62.9510 -15.0670 277° West 465 535 36,000  Level FlightAware
10:55AM 62.9610 -15.2450 277° West 465 535 36,000  Level FlightAware
10:56AM 62.9700 -15.3950 278° West 465 535 36,000  Level FlightAware
10:56AM 62.9780 -15.5620 276° West 465 535 36,000  Level FlightAware
10:57AM 62.9870 -15.7230 277° West 465 535 36,000  Level FlightAware
10:58AM 62.9950 -15.8810 276° West 464 534 36,000  Level FlightAware
10:58AM 63.0040 -16.0610 276° West 465 535 36,000  Level FlightAware
10:59AM 63.0120 -16.2210 276° West 465 535 36,000  Level FlightAware
10:59AM 63.0190 -16.3690 276° West 465 535 36,000  Level FlightAware
11:00AM 63.0270 -16.5470 276° West 465 535 36,000  Level FlightAware
11:00AM 63.0340 -16.6950 276° West 465 535 36,000  Level FlightAware
11:01AM 63.0410 -16.8580 275° West 465 535 36,000  Level FlightAware
11:02AM 63.0490 -17.0370 276° West 466 536 36,000  Level FlightAware
11:02AM 63.0560 -17.2080 275° West 467 537 36,000  Level FlightAware
11:03AM 63.0620 -17.3660 275° West 468 539 36,000  Level FlightAware
11:03AM 63.0680 -17.5100 275° West 468 539 36,000  Level FlightAware
11:04AM 63.0740 -17.6790 275° West 468 539 36,000  Level FlightAware
11:05AM 63.0810 -17.8690 275° West 468 539 36,000  Level FlightAware
11:05AM 63.0870 -18.0270 275° West 470 541 36,000  Level FlightAware
11:06AM 63.0930 -18.1940 275° West 469 540 36,000  Level FlightAware
11:06AM 63.0990 -18.3730 274° West 469 540 36,000  Level FlightAware
11:07AM 63.1040 -18.5290 274° West 468 539 36,000  Level FlightAware
11:07AM 63.1090 -18.7000 274° West 468 539 36,000  Level FlightAware
11:08AM 63.1140 -18.8620 274° West 468 539 36,000  Level FlightAware
11:09AM 63.1190 -19.0380 274° West 469 540 36,000  Level FlightAware
11:09AM 63.1230 -19.2010 273° West 470 541 36,000  Level FlightAware
11:10AM 63.1280 -19.3740 274° West 471 542 36,000  Level FlightAware
11:10AM 63.1320 -19.5270 273° West 471 542 36,000  Level FlightAware
11:11AM 63.1340 -19.6260 273° West 472 543 36,000  Level FlightAware
11:12AM 63.1400 -19.8850 273° West 472 543 36,000  Level FlightAware
11:12AM 63.1440 -20.0790 273° West 471 542 36,000  Level FlightAware
11:13AM 63.1470 -20.2380 272° West 471 542 36,000  Level FlightAware
11:13AM 63.1500 -20.3970 272° West 470 541 36,000  Level FlightAware
11:14AM 63.1530 -20.5660 272° West 470 541 36,000  Level FlightAware
11:14AM 63.1560 -20.7310 272° West 469 540 36,000  Level FlightAware
11:15AM 63.1590 -20.9120 272° West 470 541 36,000  Level FlightAware
11:16AM 63.1610 -21.0580 272° West 470 541 36,000  Level FlightAware
11:16AM 63.1630 -21.2540 271° West 470 541 36,000  Level FlightAware
11:17AM 63.1650 -21.4180 272° West 471 542 36,000  Level FlightAware
11:17AM 63.1670 -21.5720 272° West 472 543 36,000  Level FlightAware
11:18AM 63.1680 -21.7430 271° West 472 543 36,000  Level FlightAware
11:19AM 63.1700 -21.9290 271° West 472 543 36,000  Level FlightAware
11:19AM 63.1710 -22.0960 271° West 471 542 36,000  Level FlightAware
11:20AM 63.1720 -22.2410 271° West 471 542 36,000  Level FlightAware
11:20AM 63.1730 -22.4310 271° West 471 542 36,000  Level FlightAware
11:21AM 63.1730 -22.5890 270° West 470 541 36,000  Level FlightAware
11:22AM 63.1740 -22.7640 271° West 469 540 36,000  Level FlightAware
11:22AM 63.1740 -22.9260 270° West 469 540 36,000  Level FlightAware
11:23AM 63.1740 -23.1190 270° West 469 540 36,000  Level FlightAware
11:23AM 63.1740 -23.3020 270° West 469 540 36,000  Level FlightAware
11:24AM 63.1730 -23.4610 269° West 469 540 36,000  Level FlightAware
11:25AM 63.1720 -23.6350 269° West 468 539 36,000  Level FlightAware
11:25AM 63.1720 -23.7960 270° West 468 539 36,000  Level FlightAware
11:26AM 63.1710 -23.9490 269° West 468 539 36,000  Level FlightAware
11:26AM 63.1690 -24.1410 269° West 467 537 36,000  Level FlightAware
11:27AM 63.1680 -24.2920 269° West 467 537 36,000  Level FlightAware
11:27AM 63.1660 -24.4590 269° West 467 537 36,000  Level FlightAware
11:28AM 63.1640 -24.6230 269° West 467 537 36,000  Level FlightAware
11:29AM 63.1620 -24.7950 269° West 467 537 36,000  Level FlightAware
11:29AM 63.1600 -24.9910 269° West 467 537 36,000  Level FlightAware
11:30AM 63.1570 -25.1640 268° West 467 537 36,000  Level FlightAware
11:31AM 63.1540 -25.3340 268° West 468 539 36,000  Level FlightAware
11:31AM 63.1520 -25.4860 268° West 468 539 36,000  Level FlightAware
11:32AM 63.1490 -25.6500 268° West 468 539 36,000  Level FlightAware
11:32AM 63.1450 -25.8340 267° West 467 537 36,000  Level FlightAware
11:33AM 63.1420 -26.0020 268° West 467 537 36,000  Level FlightAware
11:33AM 63.1390 -26.1600 268° West 466 536 36,000  Level FlightAware
11:34AM 63.1350 -26.3190 267° West 466 536 36,000  Level FlightAware
11:35AM 63.1300 -26.5080 267° West 466 536 36,000  Level FlightAware
11:35AM 63.1270 -26.6510 267° West 467 537 36,000  Level FlightAware
11:36AM 63.1220 -26.8210 266° West 468 539 36,000  Level FlightAware
11:36AM 63.1180 -26.9940 267° West 469 540 36,000  Level FlightAware
11:37AM 63.1120 -27.1690 266° West 470 541 36,000  Level FlightAware
11:38AM 63.1080 -27.3300 267° West 471 542 36,000  Level FlightAware
11:38AM 63.1030 -27.4900 266° West 471 542 36,000  Level FlightAware
11:39AM 63.0960 -27.7000 266° West 471 542 36,000  Level FlightAware
11:39AM 63.0900 -27.8670 266° West 471 542 36,000  Level FlightAware
11:40AM 63.0840 -28.0340 266° West 470 541 36,000  Level FlightAware
11:41AM 63.0780 -28.2090 266° West 471 542 36,000  Level FlightAware
11:41AM 63.0720 -28.3620 265° West 471 542 36,000  Level FlightAware
11:42AM 63.0650 -28.5350 265° West 471 542 36,000  Level FlightAware
11:42AM 63.0600 -28.6840 266° West 472 543 36,000  Level FlightAware
11:43AM 63.0520 -28.8750 265° West 472 543 36,000  Level FlightAware
11:43AM 63.0450 -29.0280 264° West 473 544 36,000  Level FlightAware
11:44AM 63.0380 -29.2050 265° West 474 545 36,000  Level FlightAware
11:45AM 63.0290 -29.3920 264° West 474 545 36,000  Level FlightAware
11:46AM 63.0160 -29.6730 264° West 476 548 36,000  Level FlightAware
11:46AM 63.0090 -29.8230 264° West 476 548 36,000  Level FlightAware
11:47AM 63.0000 -29.9890 263° West 475 547 36,000  Level FlightAware
11:47AM 62.9820 -30.1110 252° West 477 549 36,000  Level FlightAware
11:48AM 62.9610 -30.2480 251° West 477 549 36,000  Level FlightAware
11:48AM 62.9360 -30.4130 252° West 478 550 36,000  Level FlightAware
11:49AM 62.9090 -30.5840 251° West 481 554 36,000  Level FlightAware
11:50AM 62.8750 -30.7980 251° West 482 555 36,000  Level FlightAware
11:50AM 62.8520 -30.9380 250° West 482 555 36,000  Level FlightAware
11:51AM 62.8280 -31.0790 250° West 482 555 36,000  Level FlightAware
11:52AM 62.8050 -31.2190 250° West 482 555 36,000  Level FlightAware
11:52AM 62.7810 -31.3590 250° West 482 555 36,000  Level FlightAware
11:53AM 62.7580 -31.4990 250° West 482 555 36,000  Level FlightAware
11:53AM 62.7350 -31.6390 250° West 482 555 36,000  Level FlightAware
11:54AM 62.7100 -31.7870 250° West 482 555 36,000  Level FlightAware
11:55AM 62.6860 -31.9310 250° West 482 555 36,000  Level FlightAware
11:55AM 62.6630 -32.0670 250° West 482 555 36,000  Level FlightAware
11:56AM 62.6400 -32.2060 250° West 482 555 36,000  Level FlightAware
11:56AM 62.6160 -32.3490 250° West 482 555 36,000  Level FlightAware
11:57AM 62.5940 -32.4810 250° West 482 555 36,000  Level FlightAware
11:58AM 62.5640 -32.6590 250° West 482 555 36,000  Level FlightAware
11:59AM 62.5330 -32.8440 250° West 482 555 36,000  Level FlightAware
11:59AM 62.5100 -32.9830 250° West 482 555 36,000  Level FlightAware
12:02PM 62.3927 -33.4834 243° Southwest  Level Estimated
12:03PM 62.3408 -33.7013 243° Southwest  Level Estimated
12:04PM 62.2886 -33.9184 243° Southwest  Level Estimated
12:05PM 62.2360 -34.1348 243° Southwest  Level Estimated
12:06PM 62.1831 -34.3505 242° Southwest  Level Estimated
12:07PM 62.1298 -34.5654 242° Southwest  Level Estimated
12:08PM 62.0762 -34.7795 242° Southwest  Level Estimated
12:09PM 62.0223 -34.9929 242° Southwest  Level Estimated
12:10PM 61.9680 -35.2055 242° Southwest  Level Estimated
12:11PM 61.9135 -35.4173 241° Southwest  Level Estimated
12:12PM 61.8586 -35.6284 241° Southwest  Level Estimated
12:13PM 61.8033 -35.8388 241° Southwest  Level Estimated
12:14PM 61.7478 -36.0484 241° Southwest  Level Estimated
12:15PM 61.6919 -36.2572 241° Southwest  Level Estimated
12:16PM 61.6358 -36.4653 240° Southwest  Level Estimated
12:17PM 61.5793 -36.6726 240° Southwest  Level Estimated
12:18PM 61.5225 -36.8791 240° Southwest  Level Estimated
12:19PM 61.4653 -37.0849 240° Southwest  Level Estimated
12:20PM 61.4079 -37.2900 240° Southwest  Level Estimated
12:21PM 61.3502 -37.4943 240° Southwest  Level Estimated
12:22PM 61.2921 -37.6978 239° Southwest  Level Estimated
12:23PM 61.2338 -37.9006 239° Southwest  Level Estimated
12:24PM 61.1752 -38.1026 239° Southwest  Level Estimated
12:25PM 61.1162 -38.3039 239° Southwest  Level Estimated
12:26PM 61.0570 -38.5045 239° Southwest  Level Estimated
12:27PM 60.9974 -38.7042 238° Southwest  Level Estimated
12:28PM 60.9376 -38.9033 238° Southwest  Level Estimated
12:29PM 60.8775 -39.1015 238° Southwest  Level Estimated
12:30PM 60.8171 -39.2991 238° Southwest  Level Estimated
12:31PM 60.7564 -39.4959 238° Southwest  Level Estimated
12:32PM 60.6954 -39.6919 238° Southwest  Level Estimated
12:33PM 60.6341 -39.8872 237° Southwest  Level Estimated
12:34PM 60.5725 -40.0818 237° Southwest  Level Estimated
12:35PM 60.5107 -40.2756 237° Southwest  Level Estimated
12:36PM 60.4486 -40.4686 237° Southwest  Level Estimated
12:37PM 60.3862 -40.6610 237° Southwest  Level Estimated
12:38PM 60.3235 -40.8526 237° Southwest  Level Estimated
12:39PM 60.2605 -41.0434 236° Southwest  Level Estimated
12:40PM 60.1973 -41.2336 236° Southwest  Level Estimated
12:41PM 60.1338 -41.4230 236° Southwest  Level Estimated
12:42PM 60.0701 -41.6116 236° Southwest  Level Estimated
12:43PM 60.0060 -41.7996 236° Southwest  Level Estimated
12:44PM 59.9417 -41.9868 236° Southwest  Level Estimated
12:45PM 59.8772 -42.1732 235° Southwest  Level Estimated
12:46PM 59.8124 -42.3590 235° Southwest  Level Estimated
12:47PM 59.7473 -42.5440 235° Southwest  Level Estimated
12:48PM 59.6819 -42.7284 235° Southwest  Level Estimated
12:49PM 59.6163 -42.9119 235° Southwest  Level Estimated
12:50PM 59.5505 -43.0948 235° Southwest  Level Estimated
12:51PM 59.4843 -43.2770 234° Southwest  Level Estimated
12:52PM 59.4180 -43.4584 234° Southwest  Level Estimated
12:53PM 59.3514 -43.6392 234° Southwest  Level Estimated
12:54PM 59.2845 -43.8192 234° Southwest  Level Estimated
12:55PM 59.2174 -43.9985 234° Southwest  Level Estimated
12:56PM 59.1501 -44.1771 234° Southwest  Level Estimated
12:57PM 59.0825 -44.3550 234° Southwest  Level Estimated
12:58PM 59.0146 -44.5323 233° Southwest  Level Estimated
12:59PM 58.9465 -44.7088 233° Southwest  Level Estimated
01:00PM 58.8782 -44.8846 233° Southwest  Level Estimated
01:01PM 58.8097 -45.0597 233° Southwest  Level Estimated
01:02PM 58.7408 -45.2341 233° Southwest  Level Estimated
01:03PM 58.6718 -45.4079 233° Southwest  Level Estimated
01:04PM 58.6026 -45.5809 233° Southwest  Level Estimated
01:05PM 58.5331 -45.7533 232° Southwest  Level Estimated
01:06PM 58.4633 -45.9250 232° Southwest  Level Estimated
01:07PM 58.3934 -46.0960 232° Southwest  Level Estimated
01:08PM 58.3232 -46.2663 232° Southwest  Level Estimated
01:09PM 58.2528 -46.4360 232° Southwest  Level Estimated
01:10PM 58.1821 -46.6049 232° Southwest  Level Estimated
01:11PM 58.1113 -46.7733 231° Southwest  Level Estimated
01:12PM 58.0402 -46.9409 231° Southwest  Level Estimated
01:13PM 57.9689 -47.1079 231° Southwest  Level Estimated
01:14PM 57.8974 -47.2742 231° Southwest  Level Estimated
01:15PM 57.8257 -47.4398 231° Southwest  Level Estimated
01:16PM 57.7537 -47.6048 231° Southwest  Level Estimated
01:17PM 57.6816 -47.7691 231° Southwest  Level Estimated
01:18PM 57.6092 -47.9328 231° Southwest  Level Estimated
01:19PM 57.5366 -48.0958 230° Southwest  Level Estimated
01:20PM 57.4638 -48.2582 230° Southwest  Level Estimated
01:21PM 57.3909 -48.4199 230° Southwest  Level Estimated
01:22PM 57.3176 -48.5810 230° Southwest  Level Estimated
01:23PM 57.2442 -48.7415 230° Southwest  Level Estimated
01:24PM 57.1706 -48.9013 230° Southwest  Level Estimated
01:24PM 58.1667 -54.7667 229° Southwest 300 345 36,000  Level Gander Center
01:25PM 57.0968 -49.0605 230° Southwest  Level Estimated
01:25PM 58.1167 -55.0000 248° West 470 541 36,000  Level Gander Center
01:26PM 57.0228 -49.2190 229° Southwest  Level Estimated
01:26PM 58.0833 -55.2000 253° West 500 575 36,000  Level Gander Center
01:27PM 56.9486 -49.3769 229° Southwest  Level Estimated
01:27PM 58.0333 -55.4500 249° West 500 575 36,000  Level Gander Center
01:28PM 56.8742 -49.5342 229° Southwest  Level Estimated
01:28PM 57.9833 -55.6833 248° West 500 575 36,000  Level Gander Center
01:29PM 56.7964 -49.6974 229° Southwest  Level Estimated
01:29PM 57.9500 -55.9000 254° West 490 564 36,000  Level Gander Center
01:30PM 56.7185 -49.8599 229° Southwest  Level Estimated
01:30PM 57.8667 -56.1667 240° Southwest 500 575 36,000  Level Gander Center
01:31PM 57.8333 -56.4000 255° West 510 587 36,000  Level Gander Center
01:32PM 57.7667 -56.6500 244° Southwest 500 575 36,000  Level Gander Center
01:33PM 57.7167 -56.8833 248° West 490 564 36,000  Level Gander Center
01:34PM 57.6667 -57.1333 250° West 490 564 36,000  Level Gander Center
01:35PM 57.6167 -57.3667 248° West 500 575 36,000  Level Gander Center
01:36PM 57.5667 -57.6167 250° West 500 575 36,000  Level Gander Center
01:37PM 57.5000 -57.8333 240° Southwest 500 575 36,000  Level Gander Center
01:38PM 57.4500 -58.0833 250° West 490 564 36,000  Level Gander Center
01:39PM 57.4000 -58.3167 248° West 500 575 36,000  Level Gander Center
01:40PM 57.3333 -58.5667 244° Southwest 500 575 36,000  Level Gander Center
01:41PM 57.3000 -58.7833 254° West 490 564 36,000  Level Gander Center
01:42PM 57.2333 -59.0333 244° Southwest 490 564 36,000  Level Gander Center
01:43PM 57.1833 -59.2500 247° West 490 564 36,000  Level Gander Center
01:44PM 57.1167 -59.4667 241° Southwest 490 564 36,000  Level Gander Center
01:45PM 57.0667 -59.7500 252° West 480 552 36,000  Level Gander Center
01:46PM 57.0000 -59.9667 241° Southwest 490 564 36,000  Level Gander Center
01:47PM 56.9333 -60.2167 244° Southwest 490 564 36,000  Level Gander Center
01:48PM 56.8833 -60.4000 244° Southwest 480 552 36,000  Level Gander Center
01:49PM 56.7833 -60.5833 225° Southwest 480 552 36,000  Level Gander Center
01:50PM 56.6667 -60.7000 209° Southwest 480 552 36,000  Level Gander Center
01:51PM 56.5333 -60.8333 209° Southwest 490 564 36,000  Level Gander Center
01:52PM 56.4333 -60.9167 205° Southwest 480 552 36,000  Level Gander Center
01:53PM 56.3000 -61.0333 206° Southwest 480 552 36,000  Level Gander Center
01:54PM 56.1833 -61.1333 206° Southwest 490 564 36,000  Level Gander Center
01:55PM 56.0667 -61.2500 209° Southwest 480 552 36,000  Level Gander Center
01:56PM 55.9500 -61.3667 209° Southwest 480 552 36,000  Level Gander Center
01:57PM 55.8333 -61.4667 206° Southwest 480 552 36,000  Level Gander Center
01:58PM 55.7167 -61.5833 209° Southwest 480 552 36,000  Level Gander Center
01:59PM 55.6000 -61.7000 209° Southwest 480 552 36,000  Level Gander Center
02:00PM 55.4833 -61.8167 210° Southwest 480 552 36,000  Level Gander Center
02:01PM 55.3667 -61.9000 202° Southwest 470 541 36,000  Level Gander Center
02:02PM 55.2333 -62.0167 207° Southwest 470 541 36,000  Level Gander Center
02:03PM 55.1333 -62.1000 205° Southwest 480 552 36,000  Level Gander Center
02:04PM 55.0167 -62.2167 210° Southwest 470 541 36,000  Level Gander Center
02:05PM 54.8833 -62.3333 207° Southwest 480 552 36,000  Level Gander Center
02:06PM 54.7833 -62.4167 206° Southwest 470 541 36,000  Level Gander Center
02:07PM 54.6500 -62.5167 203° Southwest 470 541 36,000  Level Gander Center
02:08PM 54.5500 -62.6000 206° Southwest 470 541 36,000  Level Gander Center
02:09PM 54.4000 -62.7167 204° Southwest 470 541 36,000  Level Gander Center
02:10PM 54.3000 -62.8333 214° Southwest 470 541 36,000  Level Gander Center
02:11PM 54.1667 -62.9167 200° South 470 541 36,000  Level Gander Center
02:12PM 54.0667 -63.0167 210° Southwest 460 529 36,000  Level Gander Center
02:13PM 53.9500 -63.1000 203° Southwest 460 529 36,000  Level Gander Center
02:14PM 53.8333 -63.2000 207° Southwest 470 541 36,000  Level Gander Center
02:15PM 53.7167 -63.2833 203° Southwest 470 541 36,000  Level Gander Center
02:16PM 53.6000 -63.4000 211° Southwest 470 541 36,000  Level Gander Center
02:17PM 53.4833 -63.5000 207° Southwest 470 541 36,000  Level Gander Center
02:18PM 53.3500 -63.5833 200° South 470 541 36,000  Level Gander Center
02:19PM 53.2333 -63.6833 207° Southwest 470 541 36,000  Level Gander Center
02:20PM 53.1167 -63.7833 207° Southwest 470 541 36,000  Level Gander Center
02:21PM 53.0000 -63.8667 203° Southwest 470 541 36,000  Level Gander Center
02:22PM 52.8833 -63.9667 207° Southwest 470 541 36,000  Level Gander Center
02:23PM 52.7667 -64.0500 203° Southwest 470 541 36,000  Level Gander Center
02:24PM 52.6667 -64.1500 211° Southwest 460 529 36,000  Level Gander Center
02:25PM 52.5333 -64.2167 197° South 460 529 36,000  Level Gander Center
02:26PM 52.4167 -64.3333 211° Southwest 460 529 36,000  Level Gander Center
02:27PM 52.3000 -64.4000 199° South 460 529 36,000  Level Gander Center
02:28PM 52.1833 -64.5000 208° Southwest 460 529 36,000  Level Gander Center
02:29PM 52.0667 -64.5833 204° Southwest 460 529 36,000  Level Moncton Center
02:30PM 51.9500 -64.6667 204° Southwest 460 529 36,000  Level Gander Center
02:31PM 51.8333 -64.7500 204° Southwest 460 529 36,000  Level Moncton Center
02:32PM 51.7333 -64.8333 207° Southwest 460 529 36,000  Level Moncton Center
02:33PM 51.6000 -64.9333 205° Southwest 460 529 36,000  Level Moncton Center
02:34PM 51.5000 -65.0167 207° Southwest 460 529 36,000  Level Moncton Center
02:35PM 51.3833 -65.1000 204° Southwest 460 529 36,000  Level Moncton Center
02:36PM 51.2667 -65.1667 200° South 460 529 36,000  Level Moncton Center
02:37PM 51.1500 -65.2500 204° Southwest 450 518 36,000  Level Moncton Center
02:38PM 51.0333 -65.3333 204° Southwest 450 518 36,000  Level Moncton Center
02:39PM 50.9167 -65.4333 208° Southwest 450 518 36,000  Level Moncton Center
02:40PM 50.7833 -65.5167 202° Southwest 450 518 36,000  Level Moncton Center
02:41PM 50.6833 -65.5833 203° Southwest 450 518 36,000  Level Moncton Center
02:42PM 50.5667 -65.6667 204° Southwest 460 529 36,000  Level Moncton Center
02:49PM 49.7900 -66.2040 204° Southwest 448 516 36,000  Level FlightAware
02:50PM 49.7240 -66.2480 203° Southwest 448 516 36,000  Level FlightAware
02:50PM 49.6480 -66.2990 203° Southwest 446 513 36,000  Level FlightAware
02:51PM 49.5830 -66.3420 203° Southwest 447 514 36,000  Level FlightAware
02:51PM 49.5210 -66.3830 203° Southwest 447 514 36,000  Level FlightAware
02:52PM 49.4510 -66.4290 203° Southwest 447 514 36,000  Level FlightAware
02:53PM 49.3820 -66.4750 203° Southwest 444 511 36,000  Level FlightAware
02:53PM 49.3180 -66.5160 203° Southwest 441 507 36,000  Level FlightAware
02:54PM 49.2550 -66.5570 203° Southwest 440 506 36,000  Level FlightAware
02:54PM 49.1920 -66.5990 204° Southwest 437 503 36,000  Level FlightAware
02:55PM 49.1330 -66.6370 203° Southwest 435 501 36,000  Level FlightAware
02:56PM 49.0590 -66.6850 203° Southwest 435 501 36,000  Level FlightAware
02:56PM 48.9950 -66.7270 203° Southwest 434 499 36,000  Level FlightAware
02:57PM 48.9250 -66.7710 202° Southwest 433 498 36,000  Level FlightAware
02:57PM 48.8660 -66.8090 203° Southwest 429 494 36,000  Level FlightAware
02:58PM 48.8000 -66.8520 203° Southwest 424 488 36,000  Level FlightAware
02:58PM 48.7380 -66.8920 203° Southwest 421 484 36,000  Level FlightAware
02:59PM 48.6700 -66.9340 202° Southwest 418 481 36,000  Level FlightAware
03:00PM 48.6140 -66.9700 203° Southwest 415 478 36,000  Level FlightAware
03:00PM 48.5500 -67.0110 203° Southwest 415 478 36,000  Level FlightAware
03:01PM 48.5000 -67.0420 202° Southwest 415 478 36,000  Level FlightAware
03:01PM 48.4400 -67.0800 203° Southwest 415 478 36,000  Level FlightAware
03:02PM 48.3770 -67.1200 203° Southwest 414 476 36,000  Level FlightAware
03:02PM 48.3160 -67.1590 203° Southwest 410 472 36,000  Level FlightAware
03:03PM 48.2530 -67.1980 202° Southwest 411 473 36,000  Level FlightAware
03:04PM 48.2060 -67.2280 203° Southwest 411 473 36,000  Level FlightAware
03:04PM 48.1390 -67.2690 202° Southwest 413 475 36,000  Level FlightAware
03:05PM 48.0650 -67.3150 203° Southwest 410 472 36,000  Level FlightAware
03:05PM 48.0080 -67.3500 202° Southwest 408 470 36,000  Level FlightAware
03:06PM 47.9520 -67.3850 203° Southwest 407 468 36,000  Level FlightAware
03:07PM 47.8800 -67.4280 202° Southwest 407 468 36,000  Level FlightAware
03:07PM 47.8250 -67.4610 202° Southwest 407 468 36,000  Level FlightAware
03:08PM 47.7720 -67.4940 203° Southwest 407 468 36,000  Level FlightAware
03:09PM 47.6640 -67.5620 203° Southwest 406 467 36,000  Level FlightAware
03:09PM 47.5990 -67.6010 202° Southwest 407 468 36,000  Level FlightAware
03:10PM 47.5310 -67.6430 203° Southwest 408 470 36,000  Level FlightAware
03:10PM 47.5006 -67.6611 202° Southwest 408 470 36,000  Level FlightAware ADS-B (CYSG)
03:11PM 47.5010 -67.6610 North 300 345 36,000  Level FlightAware
03:12PM 47.3140 -67.7730 202° Southwest 412 474 36,000  Level FlightAware
03:13PM 47.2490 -67.8130 203° Southwest 411 473 36,000  Level FlightAware
03:13PM 47.1810 -67.8540 202° Southwest 410 472 36,000  Level FlightAware
03:14PM 47.1210 -67.8890 202° Southwest 409 471 36,000  Level FlightAware
03:14PM 47.2972 -67.7840 22° Northeast 413 475 36,000  Level FlightAware ADS-B (CYSG)
03:15PM 46.9980 -67.9620 202° Southwest 406 467 36,000  Level FlightAware
03:16PM 46.9390 -67.9970 202° Southwest 403 464 36,000  Level FlightAware
03:16PM 46.8750 -68.0350 202° Southwest 398 458 36,000  Level FlightAware
03:17PM 46.8120 -68.0720 202° Southwest 395 455 36,000  Level FlightAware
03:17PM 46.7530 -68.1030 200° South 404 465 36,000  Level FlightAware
03:18PM 46.6930 -68.1280 196° South 403 464 36,000  Level FlightAware
03:19PM 46.6290 -68.1550 196° South 401 461 36,000  Level FlightAware
03:19PM 46.5670 -68.1810 196° South 403 464 36,000  Level FlightAware
03:20PM 46.4979 -68.2095 196° South 404 465 36,000  Level FlightAware ADS-B (CYSG)
03:20PM 46.4350 -68.2360 196° South 403 464 36,000  Level FlightAware
03:21PM 46.3610 -68.2660 196° South 405 466 36,000  Level FlightAware
03:22PM 46.2880 -68.2960 196° South 398 458 36,000  Level FlightAware
03:22PM 46.2140 -68.3270 196° South 405 466 36,000  Level FlightAware
03:23PM 46.1668 -68.3457 195° South 404 465 36,000  Level FlightAware ADS-B (CYSG)
03:24PM 46.1670 -68.3460 312° West 404 465 36,000  Level FlightAware
03:24PM 46.0806 -68.3808 196° South 404 465 36,000  Level FlightAware ADS-B (CYSG)
03:25PM 45.9657 -68.4275 196° South 404 465 36,000  Level FlightAware ADS-B (CYSG)
03:26PM 45.8722 -68.4656 196° South 402 463 36,000  Level FlightAware ADS-B (CYSG)
03:26PM 45.8173 -68.4877 196° South 401 461 36,000  Level FlightAware ADS-B (CYSG)
03:27PM 45.7380 -68.5200 196° South 398 458 36,000  Level FlightAware
03:27PM 45.7236 -68.5254 195° South 399 459 36,000  Level FlightAware ADS-B (CYSG)
03:27PM 45.6846 -68.5411 196° South 399 459 36,000  Level FlightAware ADS-B (CYSG)
03:28PM 45.6107 -68.5707 196° South 400 460 36,000  Level FlightAware ADS-B (CYSG)
03:29PM 45.5637 -68.5895 196° South 400 460 36,000  Level FlightAware ADS-B (CYSG)
03:29PM 45.5003 -68.6147 196° South 400 460 36,000  Level FlightAware ADS-B (CYSG)
03:30PM 45.4471 -68.6359 196° South 401 461 36,000  Level FlightAware ADS-B (CYSG)
03:30PM 45.3911 -68.6581 196° South 401 461 36,000  Level FlightAware ADS-B (CYSG)
03:31PM 45.3310 -68.6820 196° South 401 461 36,000  Level FlightAware ADS-B (CYSG)
03:31PM 45.2790 -68.7025 196° South 400 460 36,000  Level FlightAware ADS-B (CYSG)
03:32PM 45.2190 -68.7262 196° South 400 460 36,000  Level FlightAware ADS-B (KBGR)
03:32PM 45.1622 -68.7486 195° South 400 460 36,000  Level FlightAware ADS-B (CYQI)
03:33PM 45.1025 -68.7721 196° South 401 461 36,000  Level FlightAware ADS-B (CYSG)
03:33PM 45.0424 -68.7957 195° South 401 461 36,000  Level FlightAware ADS-B (CYSG)
03:34PM 44.9931 -68.8151 196° South 403 464 36,000  Level FlightAware ADS-B (CYSG)
03:34PM 44.9637 -68.8265 195° South 403 464 36,000  Level FlightAware ADS-B (CYQI)
03:35PM 44.9046 -68.8496 195° South 404 465 36,000  Level FlightAware ADS-B (CYSG)
03:35PM 44.8574 -68.8687 196° South 400 460 36,000  Level FlightAware ADS-B (CYQI)
03:36PM 44.8057 -68.8976 202° Southwest 391 450 36,000  Level FlightAware ADS-B (KBGR)
03:36PM 44.7579 -68.9307 206° Southwest 390 449 36,000  Level FlightAware ADS-B (KBGR)
03:37PM 44.7094 -68.9644 206° Southwest 390 449 36,000  Level FlightAware ADS-B (CYSG)
03:37PM 44.6601 -68.9982 206° Southwest 390 449 36,000  Level FlightAware ADS-B (CYSG)
03:38PM 44.6185 -69.0264 206° Southwest 390 449 36,000  Level FlightAware ADS-B (CYQI)
03:38PM 44.5533 -69.0707 206° Southwest 389 448 36,000  Level FlightAware ADS-B (CYSG)
03:39PM 44.5048 -69.1035 206° Southwest 388 447 36,000  Level FlightAware ADS-B (CYSG)
03:39PM 44.4527 -69.1389 206° Southwest 386 444 36,000  Level FlightAware ADS-B (KBGR)
03:40PM 44.4112 -69.1668 206° Southwest 384 442 36,000  Level FlightAware ADS-B (KBGR)
03:40PM 44.3569 -69.2033 206° Southwest 380 437 36,000  Level FlightAware ADS-B (KBGR)
03:41PM 44.3124 -69.2331 206° Southwest 378 435 36,000  Level FlightAware ADS-B (KBGR)
03:41PM 44.2675 -69.2633 206° Southwest 376 433 36,000  Level FlightAware ADS-B (KBGR)
03:42PM 44.2170 -69.2972 206° Southwest 374 430 36,000  Level FlightAware ADS-B (CYQI)
03:42PM 44.1599 -69.3354 206° Southwest 373 429 36,000  Level FlightAware ADS-B (CYQI)
03:43PM 44.1143 -69.3658 206° Southwest 372 428 36,000  Level FlightAware ADS-B (CYQI)
03:43PM 44.0646 -69.3989 206° Southwest 370 426 36,000  Level FlightAware ADS-B (CYQI)
03:44PM 44.0259 -69.4246 206° Southwest 371 427 36,000  Level FlightAware ADS-B (CYQI)
03:44PM 43.9698 -69.4618 205° Southwest 360 414 36,000  Level FlightAware ADS-B (CYQI)
03:45PM 43.9415 -69.4804 205° Southwest 355 409 36,000 360 Level FlightAware ADS-B (CYQI)
03:45PM 43.8732 -69.5257 206° Southwest 358 412 36,400 780 Climbing FlightAware ADS-B (CYQI)
03:46PM 43.8091 -69.5681 206° Southwest 366 421 37,000 720 Climbing FlightAware ADS-B (KBOS)
03:47PM 43.7531 -69.6052 206° Southwest 372 428 37,400 660 Climbing FlightAware ADS-B
03:47PM 43.7053 -69.6366 205° Southwest 378 435 37,800 420 Climbing FlightAware ADS-B (KBOS)
03:48PM 43.6487 -69.6737 205° Southwest 388 447 37,900 180 Climbing FlightAware ADS-B (KBOS)
03:48PM 43.5973 -69.7073 205° Southwest 397 457 38,000 120 Climbing FlightAware ADS-B (KBOS)
03:49PM 43.5774 -69.7203 205° Southwest 392 451 38,000  Level FlightAware ADS-B
03:49PM 43.5625 -69.7300 205° Southwest 393 452 38,000  Level FlightAware ADS-B
03:49PM 43.5482 -69.7393 205° Southwest 393 452 38,000  Level FlightAware ADS-B
03:49PM 43.5115 -69.7632 205° Southwest 393 452 38,000  Level FlightAware ADS-B
03:50PM 43.4762 -69.7862 205° Southwest 392 451 38,000  Level FlightAware ADS-B
03:50PM 43.4612 -69.7958 205° Southwest 401 461 38,000  Level FlightAware ADS-B (KBOS)
03:50PM 43.4377 -69.8090 202° Southwest 401 461 38,000  Level FlightAware ADS-B (KBOS)
03:50PM 43.3901 -69.8292 197° South 414 476 38,000  Level FlightAware ADS-B
03:51PM 43.3798 -69.8328 194° South 414 476 38,000  Level FlightAware ADS-B (KBOS)
03:51PM 43.3396 -69.8439 191° South 419 482 38,000  Level FlightAware ADS-B (KBOS)
03:51PM 43.2743 -69.8544 187° South 423 487 38,000  Level FlightAware ADS-B
03:52PM 43.2135 -69.8646 187° South 422 486 38,000  Level FlightAware ADS-B
03:53PM 43.1441 -69.8754 186° South 422 486 38,000  Level FlightAware ADS-B (CYQI)
03:53PM 43.0817 -69.8846 186° South 422 486 38,000  Level FlightAware ADS-B (KBOS)
03:54PM 43.0217 -69.8934 186° South 422 486 38,000  Level FlightAware ADS-B (KBOS)
03:54PM 42.9608 -69.9023 186° South 423 487 38,000  Level FlightAware ADS-B
03:55PM 42.9049 -69.9103 186° South 422 486 38,000  Level FlightAware ADS-B (KBOS)
03:55PM 42.8464 -69.9188 186° South 423 487 38,000  Level FlightAware ADS-B (KBOS)
03:56PM 42.7851 -69.9277 186° South 423 487 38,000  Level FlightAware ADS-B (KBOS)
03:56PM 42.7274 -69.9360 186° South 422 486 38,000  Level FlightAware ADS-B (KBOS)
03:57PM 42.6675 -69.9446 186° South 420 483 38,000  Level FlightAware ADS-B (KBOS)
03:57PM 42.5932 -69.9554 186° South 419 482 38,000  Level FlightAware ADS-B
03:58PM 42.5326 -69.9641 186° South 417 480 38,000  Level FlightAware ADS-B
03:58PM 42.4550 -69.9752 186° South 408 470 38,000  Level FlightAware ADS-B
03:59PM 42.3879 -69.9848 186° South 414 476 38,000  Level FlightAware ADS-B (KBOS)
04:00PM 42.3224 -69.9941 186° South 411 473 38,000  Level FlightAware ADS-B (KBOS)
04:00PM 42.2652 -70.0022 186° South 410 472 38,000  Level FlightAware ADS-B (KBOS)
04:01PM 42.2084 -70.0103 186° South 410 472 38,000  Level FlightAware ADS-B (KBOS)
04:01PM 42.1520 -70.0207 188° South 395 455 38,000  Level FlightAware ADS-B
04:01PM 42.1354 -70.0255 192° South 398 458 38,000  Level FlightAware ADS-B (KBOS)
04:02PM 42.1034 -70.0374 195° South 394 453 38,000  Level FlightAware ADS-B
04:02PM 42.0515 -70.0641 201° Southwest 383 441 38,000  Level FlightAware ADS-B (KBOS)
04:02PM 42.0416 -70.0704 205° Southwest 383 441 38,000  Level FlightAware ADS-B (KBOS)
04:03PM 41.9853 -70.1133 210° Southwest 376 433 38,000  Level FlightAware ADS-B (KBOS)
04:03PM 41.9660 -70.1315 215° Southwest 374 430 38,000  Level FlightAware ADS-B (KOWD)
04:04PM 41.9323 -70.1682 219° Southwest 371 427 38,000  Level FlightAware ADS-B (KBOS)
04:04PM 41.9011 -70.2092 224° Southwest 363 418 38,000  Level FlightAware ADS-B
04:04PM 41.8860 -70.2315 228° Southwest 364 419 38,000  Level FlightAware ADS-B
04:04PM 41.8645 -70.2629 227° Southwest 365 420 38,000  Level FlightAware ADS-B
04:05PM 41.8439 -70.2926 227° Southwest 366 421 38,000  Level FlightAware ADS-B
04:05PM 41.8156 -70.3336 227° Southwest 367 422 38,000  Level FlightAware ADS-B
04:06PM 41.7870 -70.3752 227° Southwest 372 428 38,000  Level FlightAware ADS-B (KOWD)
04:06PM 41.7457 -70.4353 227° Southwest 372 428 38,000  Level FlightAware ADS-B
04:07PM 41.7038 -70.4962 227° Southwest 372 428 38,000  Level FlightAware ADS-B
04:07PM 41.6671 -70.5493 227° Southwest 371 427 38,000  Level FlightAware ADS-B
04:07PM 41.6553 -70.5665 227° Southwest 366 421 38,000  Level FlightAware ADS-B
04:08PM 41.6341 -70.5970 227° Southwest 363 418 38,000  Level FlightAware ADS-B
04:08PM 41.6292 -70.6041 227° Southwest 367 422 38,000  Level FlightAware ADS-B
04:08PM 41.6253 -70.6098 228° Southwest 368 423 38,000  Level FlightAware ADS-B (KBOS)
04:08PM 41.6107 -70.6347 232° Southwest 363 418 38,000  Level FlightAware ADS-B
04:09PM 41.5809 -70.6889 234° Southwest 363 418 38,000  Level FlightAware ADS-B
04:09PM 41.5519 -70.7415 234° Southwest 358 412 38,000  Level FlightAware ADS-B
04:09PM 41.5455 -70.7530 233° Southwest 358 412 38,000  Level FlightAware ADS-B
04:10PM 41.5203 -70.7986 233° Southwest 359 413 38,000  Level FlightAware ADS-B
04:10PM 41.4911 -70.8511 233° Southwest 359 413 38,000  Level FlightAware ADS-B
04:10PM 41.4764 -70.8775 233° Southwest 360 414 38,000  Level FlightAware ADS-B
04:11PM 41.4543 -70.9171 233° Southwest 365 420 38,000  Level FlightAware ADS-B
04:11PM 41.4335 -70.9543 233° Southwest 361 415 38,000  Level FlightAware ADS-B
04:11PM 41.4196 -70.9792 233° Southwest 361 415 38,000  Level FlightAware ADS-B
04:12PM 41.3884 -71.0349 233° Southwest 361 415 38,000  Level FlightAware ADS-B
04:12PM 41.3680 -71.0713 233° Southwest 361 415 38,000  Level FlightAware ADS-B
04:13PM 41.3378 -71.1249 233° Southwest 360 414 38,000  Level FlightAware ADS-B
04:13PM 41.3093 -71.1754 233° Southwest 360 414 38,000  Level FlightAware ADS-B
04:13PM 41.2886 -71.2123 233° Southwest 359 413 38,000  Level FlightAware ADS-B
04:14PM 41.2786 -71.2302 233° Southwest 363 418 38,000  Level FlightAware ADS-B (KOWD)
04:14PM 41.2681 -71.2487 233° Southwest 363 418 38,000  Level FlightAware ADS-B (KOWD)
04:14PM 41.2333 -71.3102 233° Southwest 363 418 38,000  Level FlightAware ADS-B (KOWD)
04:15PM 41.1992 -71.3704 233° Southwest 358 412 38,000  Level FlightAware ADS-B
04:15PM 41.1908 -71.3851 233° Southwest 363 418 38,000  Level FlightAware ADS-B
04:15PM 41.1862 -71.3930 233° Southwest 358 412 38,000  Level FlightAware ADS-B
04:16PM 41.1588 -71.4414 233° Southwest 357 411 38,000  Level FlightAware ADS-B
04:16PM 41.1482 -71.4600 233° Southwest 357 411 38,000  Level FlightAware ADS-B
04:16PM 41.1171 -71.5148 233° Southwest 363 418 38,000  Level FlightAware ADS-B (KOWD)
04:17PM 41.0775 -71.5844 233° Southwest 364 419 38,000  Level FlightAware ADS-B (KOWD)
04:17PM 41.0616 -71.6121 233° Southwest 360 414 38,000  Level FlightAware ADS-B
04:18PM 41.0398 -71.6500 233° Southwest 366 421 38,000  Level FlightAware ADS-B
04:18PM 40.9996 -71.7203 233° Southwest 368 423 38,000  Level FlightAware ADS-B
04:19PM 40.9624 -71.7853 233° Southwest 368 423 38,000  Level FlightAware ADS-B (KOWD)
04:19PM 40.9306 -71.8405 233° Southwest 368 423 38,000  Level FlightAware ADS-B (KOWD)
04:20PM 40.9013 -71.8907 232° Southwest 366 421 38,000  Level FlightAware ADS-B (KSNC)
04:20PM 40.8617 -71.9423 225° Southwest 371 427 38,000  Level FlightAware ADS-B (KOWD)
04:21PM 40.8087 -72.0103 224° Southwest 372 428 38,000  Level FlightAware ADS-B (KSNC)
04:22PM 40.7856 -72.0400 224° Southwest 373 429 38,000  Level FlightAware ADS-B (KOWD)
04:22PM 40.7233 -72.1193 224° Southwest 372 428 38,000  Level FlightAware ADS-B (KSNC)
04:23PM 40.6734 -72.1829 224° Southwest 371 427 38,000  Level FlightAware ADS-B (KSNC)
04:24PM 40.6366 -72.2298 224° Southwest 368 423 38,000  Level FlightAware ADS-B (KSNC)
04:24PM 40.5731 -72.3105 224° Southwest 367 422 38,000  Level FlightAware ADS-B (KSNC)
04:25PM 40.5359 -72.3577 224° Southwest 367 422 38,000  Level FlightAware ADS-B (KSNC)
04:25PM 40.4870 -72.4195 224° Southwest 369 425 38,000  Level FlightAware ADS-B (KSNC)
04:26PM 40.4497 -72.4667 224° Southwest 369 425 38,000  Level FlightAware ADS-B (KSNC)
04:27PM 40.4100 -72.5170 224° Southwest 367 422 38,000  Level FlightAware
04:27PM 40.3953 -72.5353 224° Southwest 368 423 38,000  Level FlightAware ADS-B (KSNC)
04:27PM 40.3582 -72.5820 224° Southwest 368 423 38,000  Level FlightAware ADS-B (KSNC)
04:28PM 40.3241 -72.6249 224° Southwest 366 421 38,000  Level FlightAware ADS-B (KSNC)
04:28PM 40.2820 -72.6780 224° Southwest 367 422 38,000  Level FlightAware
04:29PM 40.2515 -72.7158 223° Southwest 367 422 38,000  Level FlightAware ADS-B (KSNC)
04:29PM 40.2144 -72.7623 224° Southwest 367 422 38,000  Level FlightAware ADS-B (KSNC)
04:30PM 40.1770 -72.8090 224° Southwest 366 421 38,000  Level FlightAware ADS-B (KSNC)
04:30PM 40.1320 -72.8651 224° Southwest 364 419 38,000  Level FlightAware ADS-B (KSNC)
04:31PM 40.0933 -72.9133 224° Southwest 366 421 38,000  Level FlightAware ADS-B (KSNC)
04:31PM 40.0556 -72.9600 224° Southwest 366 421 38,000  Level FlightAware ADS-B (KSNC)
04:32PM 39.9995 -73.0296 224° Southwest 369 425 38,000  Level FlightAware ADS-B (KSNC)
04:33PM 39.9430 -73.0990 223° Southwest 369 425 38,000  Level FlightAware
04:33PM 39.9197 -73.1282 224° Southwest 370 426 38,000  Level FlightAware ADS-B (KSNC)
04:34PM 39.8828 -73.1738 223° Southwest 369 425 38,000  Level FlightAware ADS-B (KSNC)
04:34PM 39.8263 -73.2432 223° Southwest 369 425 38,000  Level FlightAware ADS-B (KSNC)
04:35PM 39.7766 -73.2930 218° Southwest 375 432 38,000  Level FlightAware ADS-B (KSNC)
04:36PM 39.7370 -73.3290 215° Southwest 374 430 38,000  Level FlightAware
04:36PM 39.7108 -73.3540 216° Southwest 375 432 38,000  Level FlightAware ADS-B (KSNC)
04:36PM 39.6604 -73.4008 216° Southwest 374 430 38,000  Level FlightAware ADS-B (KSNC)
04:37PM 39.5850 -73.4710 216° Southwest 372 428 38,000  Level FlightAware
04:38PM 39.5570 -73.4958 214° Southwest 373 429 38,000  Level FlightAware ADS-B (KSNC)
04:39PM 39.4870 -73.5600 215° Southwest 372 428 38,000  Level FlightAware
04:39PM 39.4330 -73.6090 215° Southwest 373 429 38,000  Level FlightAware
04:40PM 39.3860 -73.6520 215° Southwest 375 432 38,000  Level FlightAware
04:40PM 39.3400 -73.6940 215° Southwest 375 432 38,000  Level FlightAware
04:41PM 39.2877 -73.7416 215° Southwest 372 428 38,000  Level FlightAware ADS-B (KSNC)
04:41PM 39.2380 -73.7870 215° Southwest 375 432 38,000  Level FlightAware
04:42PM 39.1800 -73.8390 215° Southwest 374 430 38,000  Level FlightAware
04:43PM 39.1300 -73.8850 216° Southwest 375 432 38,000  Level FlightAware
04:43PM 39.0850 -73.9250 215° Southwest 376 433 38,000  Level FlightAware
04:44PM 39.0320 -73.9730 215° Southwest 378 435 38,000  Level FlightAware
04:44PM 38.9790 -74.0200 215° Southwest 378 435 38,000  Level FlightAware
04:45PM 38.9270 -74.0660 215° Southwest 376 433 38,000  Level FlightAware
04:46PM 38.8840 -74.1050 215° Southwest 375 432 38,000  Level FlightAware
04:46PM 38.8260 -74.1570 215° Southwest 375 432 38,000  Level FlightAware
04:47PM 38.7770 -74.2010 215° Southwest 377 434 38,000  Level FlightAware
04:47PM 38.7340 -74.2390 215° Southwest 378 435 38,000  Level FlightAware
04:48PM 38.6890 -74.2800 215° Southwest 372 428 38,000  Level FlightAware
04:49PM 38.6310 -74.3310 214° Southwest 373 429 38,000  Level FlightAware
04:49PM 38.5780 -74.3780 215° Southwest 372 428 38,000  Level FlightAware
04:50PM 38.5146 -74.4339 215° Southwest 374 430 38,000  Level FlightAware ADS-B (KSBY)
04:51PM 38.4146 -74.5222 215° Southwest 377 434 38,000  Level FlightAware ADS-B (KSBY)
04:52PM 38.3446 -74.5839 215° Southwest 377 434 38,000  Level FlightAware ADS-B (KSBY)
04:52PM 38.3038 -74.6196 215° Southwest 378 435 38,000  Level FlightAware ADS-B (KSBY)
04:53PM 38.2448 -74.6713 215° Southwest 377 434 38,000  Level FlightAware ADS-B (KSBY)
04:54PM 38.1750 -74.7320 214° Southwest 376 433 38,000  Level FlightAware
04:54PM 38.1560 -74.7489 215° Southwest 378 435 38,000  Level FlightAware ADS-B (KSBY)
04:55PM 38.0866 -74.8093 214° Southwest 379 436 38,000  Level FlightAware ADS-B (KSBY)
04:55PM 38.0289 -74.8595 214° Southwest 380 437 38,000  Level FlightAware ADS-B (KSBY)
04:56PM 37.9824 -74.9001 215° Southwest 379 436 38,000  Level FlightAware ADS-B (KSBY)
04:57PM 37.9190 -74.9550 214° Southwest 372 428 38,000  Level FlightAware
04:57PM 37.9016 -74.9699 214° Southwest 379 436 38,000  Level FlightAware ADS-B (KSBY)
04:58PM 37.8325 -75.0297 214° Southwest 380 437 38,000  Level FlightAware ADS-B (KSBY)
04:58PM 37.7808 -75.0743 214° Southwest 381 438 38,000  Level FlightAware ADS-B (KSBY)
04:59PM 37.7094 -75.1357 214° Southwest 383 441 38,000  Level FlightAware ADS-B (KSBY)
05:00PM 37.6662 -75.1729 214° Southwest 382 440 38,000  Level FlightAware ADS-B (KSBY)
05:00PM 37.6100 -75.2210 214° Southwest 377 434 38,000  Level FlightAware
05:01PM 37.5510 -75.2720 214° Southwest 386 444 38,000  Level FlightAware
05:01PM 37.5374 -75.2832 213° Southwest 386 444 38,000  Level FlightAware ADS-B (KSBY)
05:02PM 37.4470 -75.3600 214° Southwest 386 444 38,000  Level FlightAware
05:03PM 37.3881 -75.4105 214° Southwest 386 444 38,000  Level FlightAware ADS-B (KSBY)
05:03PM 37.3390 -75.4530 215° Southwest 387 445 38,000  Level FlightAware
05:04PM 37.2890 -75.4950 214° Southwest 386 444 38,000  Level FlightAware
05:05PM 37.2380 -75.5380 214° Southwest 387 445 38,000  Level FlightAware
05:05PM 37.1880 -75.5800 214° Southwest 387 445 38,000  Level FlightAware
05:06PM 37.1380 -75.6230 214° Southwest 388 447 38,000  Level FlightAware
05:06PM 37.0760 -75.6740 213° Southwest 391 450 38,000  Level FlightAware
05:07PM 37.0310 -75.7130 215° Southwest 391 450 38,000  Level FlightAware
05:08PM 36.9720 -75.7620 214° Southwest 393 452 38,000  Level FlightAware
05:08PM 36.9240 -75.8020 214° Southwest 387 445 38,000  Level FlightAware
05:09PM 36.8670 -75.8430 210° Southwest 406 467 38,000  Level FlightAware
05:09PM 36.7870 -75.8850 203° Southwest 400 460 38,000  Level FlightAware
05:10PM 36.7270 -75.9160 202° Southwest 406 467 38,000  Level FlightAware
05:11PM 36.6760 -75.9430 203° Southwest 403 464 38,000  Level FlightAware
05:11PM 36.6070 -75.9800 203° Southwest 396 456 38,000  Level FlightAware
05:12PM 36.5510 -76.0090 203° Southwest 388 447 38,000  Level FlightAware
05:12PM 36.4970 -76.0380 203° Southwest 388 447 38,000  Level FlightAware
05:13PM 36.4100 -76.0840 203° Southwest 388 447 38,000  Level FlightAware
05:14PM 36.3570 -76.1110 202° Southwest 387 445 38,000  Level FlightAware
05:14PM 36.2960 -76.1430 203° Southwest 387 445 38,000  Level FlightAware
05:15PM 36.2250 -76.1800 203° Southwest 386 444 38,000  Level FlightAware
05:16PM 36.1620 -76.2130 203° Southwest 386 444 38,000  Level FlightAware
05:16PM 36.0910 -76.2500 203° Southwest 387 445 38,000  Level FlightAware
05:17PM 36.0270 -76.2840 203° Southwest 388 447 38,000  Level FlightAware
05:18PM 35.9490 -76.3240 203° Southwest 388 447 38,000  Level FlightAware
05:19PM 35.8133 -76.3939 203° Southwest 399 459 38,000  Level Washington Center
05:20PM 35.7106 -76.4489 203° Southwest 399 459 38,000  Level Washington Center
05:21PM 35.6081 -76.4964 201° Southwest 399 459 38,000  Level Washington Center
05:22PM 35.5075 -76.5489 203° Southwest 399 459 38,000  Level Washington Center
05:27PM 34.9990 -76.8100 203° Southwest 407 468 38,000  Level FlightAware
05:28PM 34.9430 -76.8390 203° Southwest 407 468 38,000  Level FlightAware
05:29PM 34.8760 -76.8720 202° Southwest 408 470 38,000  Level FlightAware
05:29PM 34.8230 -76.8990 203° Southwest 408 470 38,000  Level FlightAware
05:30PM 34.7550 -76.9330 202° Southwest 408 470 38,000  Level FlightAware
05:30PM 34.6780 -76.9720 203° Southwest 407 468 38,000  Level FlightAware
05:31PM 34.6330 -76.9940 202° Southwest 408 470 38,000  Level FlightAware
05:32PM 34.5560 -77.0320 202° Southwest 408 470 38,000  Level FlightAware
05:32PM 34.4860 -77.0670 202° Southwest 409 471 38,000  Level FlightAware
05:33PM 34.4320 -77.0940 202° Southwest 409 471 38,000  Level FlightAware
05:33PM 34.3680 -77.1260 202° Southwest 410 472 38,000  Level FlightAware
05:34PM 34.2970 -77.1610 202° Southwest 410 472 38,000  Level FlightAware
05:35PM 34.2220 -77.1990 203° Southwest 410 472 38,000  Level FlightAware
05:35PM 34.1710 -77.2240 202° Southwest 409 471 38,000  Level FlightAware
05:36PM 34.0940 -77.2620 202° Southwest 408 470 38,000  Level FlightAware
05:37PM 34.0250 -77.2960 202° Southwest 409 471 38,000  Level FlightAware
05:37PM 33.9570 -77.3290 202° Southwest 411 473 38,000  Level FlightAware
05:38PM 33.8920 -77.3610 202° Southwest 413 475 38,000  Level FlightAware
05:38PM 33.8280 -77.3930 203° Southwest 415 478 38,000  Level FlightAware
05:39PM 33.7640 -77.4240 202° Southwest 416 479 38,000  Level FlightAware
05:40PM 33.6980 -77.4560 202° Southwest 417 480 38,000  Level FlightAware
05:40PM 33.6550 -77.4770 202° Southwest 417 480 38,000  Level FlightAware
05:41PM 33.5990 -77.5050 203° Southwest 418 481 38,000  Level FlightAware
05:41PM 33.5260 -77.5400 202° Southwest 419 482 38,000  Level FlightAware
05:42PM 33.4830 -77.5610 202° Southwest 420 483 38,000  Level FlightAware
05:43PM 33.3900 -77.6060 202° Southwest 421 484 38,000  Level FlightAware
05:44PM 33.3180 -77.6410 202° Southwest 421 484 38,000  Level FlightAware
05:44PM 33.2630 -77.6680 202° Southwest 421 484 38,000  Level FlightAware
05:45PM 33.2060 -77.6950 202° Southwest 421 484 38,000  Level FlightAware
05:45PM 33.1510 -77.7220 202° Southwest 421 484 38,000  Level FlightAware
05:46PM 33.6250 -77.4920 22° Northeast 38,000  Level FlightAware
05:46PM 32.9269 -77.8244 22° Northeast 427 491 38,000  Level Jacksonville Center
05:52PM 32.3050 -78.1250 22° Northeast 426 490 38,000  Level FlightAware
05:53PM 32.2400 -78.1550 201° Southwest 425 489 38,000  Level FlightAware
05:54PM 32.1030 -78.2200 202° Southwest 423 487 38,000  Level FlightAware
05:55PM 32.1030 -78.2200 202° Southwest 422 486 38,000  Level FlightAware
05:55PM 32.0470 -78.2450 201° Southwest 422 486 38,000  Level FlightAware
05:56PM 31.9900 -78.2710 201° Southwest 422 486 38,000  Level FlightAware
05:56PM 31.9340 -78.2960 201° Southwest 422 486 38,000  Level FlightAware
05:57PM 31.8810 -78.3200 201° Southwest 422 486 38,000  Level FlightAware
05:58PM 31.8240 -78.3460 201° Southwest 422 486 38,000  Level FlightAware
05:58PM 31.6260 -78.4430 203° Southwest 423 487 38,000  Level FlightAware
05:59PM 31.5700 -78.4680 201° Southwest 423 487 38,000  Level FlightAware
05:59PM 31.5130 -78.4940 201° Southwest 423 487 38,000  Level FlightAware
06:00PM 31.4570 -78.5190 201° Southwest 423 487 38,000  Level FlightAware
06:01PM 31.4010 -78.5440 201° Southwest 423 487 38,000  Level FlightAware
06:01PM 31.3440 -78.5700 201° Southwest 423 487 38,000  Level FlightAware
06:02PM 31.2860 -78.5960 201° Southwest 423 487 38,000  Level FlightAware
06:03PM 31.2270 -78.6220 201° Southwest 423 487 38,000  Level FlightAware
06:03PM 31.1740 -78.6460 201° Southwest 423 487 38,000  Level FlightAware
06:04PM 31.1180 -78.6710 201° Southwest 423 487 38,000  Level FlightAware
06:04PM 31.0590 -78.6980 201° Southwest 423 487 38,000  Level FlightAware
06:05PM 31.0040 -78.7230 201° Southwest 423 487 38,000  Level FlightAware
06:06PM 30.9480 -78.7480 201° Southwest 423 487 38,000  Level FlightAware
06:06PM 30.8920 -78.7730 201° Southwest 423 487 38,000  Level FlightAware
06:07PM 30.8360 -78.7980 201° Southwest 423 487 38,000  Level FlightAware
06:07PM 30.7780 -78.8230 200° South 423 487 38,000  Level FlightAware
06:09PM 30.4667 -78.9778 200° South 424 488 38,000  Level Miami Center
06:10PM 30.3536 -79.0261 200° South 437 503 38,000  Level Miami Center
06:11PM 30.2381 -79.0764 201° Southwest 437 503 38,000  Level Miami Center
06:12PM 30.1289 -79.1247 201° Southwest 431 496 38,000  Level Miami Center
06:13PM 30.0344 -79.1633 199° South 431 496 38,000  Level Miami Center
06:14PM 29.9125 -79.2231 203° Southwest 431 496 38,000  Level Miami Center
06:15PM 29.7969 -79.2731 201° Southwest 438 504 38,000  Level Miami Center
06:20PM 29.1840 -79.5020 201° Southwest 38,000  Level FlightAware
06:21PM 29.1000 -79.5330 198° South 443 510 38,000  Level FlightAware
06:21PM 29.0280 -79.5600 198° South 443 510 38,000  Level FlightAware
06:22PM 28.9680 -79.5820 198° South 443 510 38,000  Level FlightAware
06:23PM 28.8620 -79.6210 198° South 442 509 38,000  Level FlightAware
06:23PM 28.7850 -79.6490 198° South 438 504 38,000  Level FlightAware
06:24PM 28.7170 -79.6750 199° South 398 458 38,000  Level FlightAware
06:24PM 28.6480 -79.7000 198° South 439 505 38,000  Level FlightAware
06:25PM 28.5770 -79.7260 198° South 439 505 38,000  Level FlightAware
06:26PM 28.5080 -79.7520 198° South 439 505 38,000  Level FlightAware
06:26PM 28.4390 -79.7770 198° South 439 505 38,000  Level FlightAware
06:27PM 28.3690 -79.8020 197° South 438 504 38,000  Level FlightAware
06:27PM 28.3010 -79.8270 198° South 438 504 38,000  Level FlightAware
06:28PM 28.2340 -79.8520 198° South 438 504 38,000  Level FlightAware
06:28PM 28.1640 -79.8770 197° South 436 502 38,000  Level FlightAware
06:29PM 28.0950 -79.9020 198° South 436 502 38,000  Level FlightAware
06:30PM 28.0280 -79.9270 198° South 436 502 38,000  Level FlightAware
06:30PM 27.9580 -79.9520 198° South 436 502 38,000  Level FlightAware
06:31PM 27.8920 -79.9760 198° South 436 502 38,000  Level FlightAware
06:31PM 27.8210 -80.0020 198° South 437 503 38,000  Level FlightAware
06:32PM 27.7540 -80.0260 198° South 437 503 38,000  Level FlightAware
06:33PM 27.6860 -80.0510 198° South 436 502 38,000  Level FlightAware
06:33PM 27.6160 -80.0760 198° South 436 502 38,000  Level FlightAware
06:34PM 27.5460 -80.1010 198° South 436 502 38,000  Level FlightAware
06:34PM 27.4790 -80.1250 198° South 443 510 38,000  Level FlightAware
06:35PM 27.4110 -80.1490 197° South 436 502 38,000  Level FlightAware
06:35PM 27.3420 -80.1740 198° South 436 502 38,000  Level FlightAware
06:36PM 27.2780 -80.1970 198° South 437 503 38,000  Level FlightAware
06:37PM 27.1950 -80.2270 198° South 438 504 38,000  Level FlightAware
06:37PM 27.1350 -80.2490 198° South 439 505 38,000  Level FlightAware
06:38PM 27.0640 -80.2740 197° South 440 506 38,000  Level FlightAware
06:38PM 26.9970 -80.2980 198° South 440 506 38,000  Level FlightAware
06:39PM 26.9260 -80.3230 197° South 440 506 38,000  Level FlightAware
06:40PM 26.8510 -80.3500 198° South 447 514 38,000  Level FlightAware
06:40PM 26.8020 -80.3760 205° Southwest 442 509 38,000  Level FlightAware
06:41PM 26.7480 -80.4250 219° Southwest 442 509 38,000  Level FlightAware
06:41PM 26.7000 -80.4740 222° Southwest 438 504 38,000  Level FlightAware
06:42PM 26.6410 -80.5350 223° Southwest 440 506 38,000  Level FlightAware
06:42PM 26.5860 -80.5900 222° Southwest 440 506 38,000  Level FlightAware
06:43PM 26.5370 -80.6410 223° Southwest 440 506 38,000  Level FlightAware
06:44PM 26.4800 -80.6990 222° Southwest 444 511 38,000  Level FlightAware
06:44PM 26.4270 -80.7490 220° Southwest 438 504 38,000  Level FlightAware
06:44PM 26.3970 -80.7640 204° Southwest 448 516 38,000  Level FlightAware
06:45PM 26.3350 -80.7800 193° South 445 512 38,000  Level FlightAware
06:46PM 26.2530 -80.7970 191° South 455 524 38,000  Level FlightAware
06:46PM 26.1800 -80.8110 190° South 458 527 38,000  Level FlightAware
06:47PM 26.1180 -80.8240 191° South 459 528 38,000  Level FlightAware
06:47PM 26.0430 -80.8380 190° South 459 528 38,000  Level FlightAware
06:48PM 25.9610 -80.8550 191° South 459 528 38,000  Level FlightAware
06:48PM 25.8970 -80.8670 190° South 460 529 38,000  Level FlightAware
06:49PM 25.8130 -80.8840 190° South 461 531 38,000  Level FlightAware
06:50PM 25.7390 -80.8980 190° South 453 521 38,000 -420 Level FlightAware
06:50PM 25.6770 -80.9100 190° South 457 526 37,600 -960 Descending FlightAware
06:51PM 25.5910 -80.9270 190° South 459 528 36,900 -1,080 Descending FlightAware
06:51PM 25.5270 -80.9390 190° South 459 528 36,400 -960 Descending FlightAware
06:52PM 25.4420 -80.9550 190° South 454 522 35,800 -960 Descending FlightAware
06:53PM 25.3690 -80.9690 190° South 453 521 35,200 -1,020 Descending FlightAware
06:53PM 25.3050 -80.9820 190° South 458 527 34,700 -1,080 Descending FlightAware
06:54PM 25.2230 -80.9980 190° South 442 509 34,000 -960 Descending FlightAware
06:54PM 25.1500 -81.0120 190° South 440 506 33,500 -960 Descending FlightAware
06:55PM 25.0900 -81.0230 189° South 441 507 33,000 -1,020 Descending FlightAware
06:55PM 25.0170 -81.0370 190° South 444 511 32,400 -1,320 Descending FlightAware
06:56PM 24.9440 -81.0510 190° South 453 521 31,500 -1,560 Descending FlightAware
06:57PM 24.8650 -81.0660 190° South 441 507 30,500 -1,740 Descending FlightAware
06:57PM 24.8030 -81.0780 190° South 437 503 29,500 -1,800 Descending FlightAware
06:58PM 24.7240 -81.0930 190° South 424 488 28,400 -1,740 Descending FlightAware
06:58PM 24.6590 -81.1040 189° South 407 468 27,400 -1,440 Descending FlightAware
06:59PM 24.6020 -81.1120 187° South 406 467 26,900 -1,020 Descending FlightAware
06:59PM 24.5350 -81.1220 188° South 391 450 26,300 -960 Descending FlightAware
07:00PM 24.4670 -81.1190 178° South 390 449 25,700 -1,080 Descending FlightAware
07:01PM 24.4080 -81.1310 190° South 393 452 25,100 -960 Descending FlightAware
07:01PM 24.3820 -81.1370 192° South 385 443 25,000 -180 Descending FlightAware
07:01PM 24.3470 -81.1310 171° South 391 450 25,000  Level FlightAware
07:01PM 24.3290 -81.1220 156° South 401 461 25,000  Level FlightAware
07:02PM 24.2760 -81.0800 144° Southeast 398 458 25,000  Level FlightAware
07:03PM 24.2170 -81.0330 144° Southeast 396 456 25,000  Level FlightAware
07:03PM 24.1650 -80.9900 143° Southeast 397 457 25,000  Level FlightAware
07:04PM 24.1100 -80.9470 144° Southeast 398 458 25,000  Level FlightAware
07:04PM 24.0850 -80.9330 153° Southeast 395 455 25,000  Level FlightAware
07:04PM 24.0580 -80.9280 170° South 385 443 25,000  Level FlightAware
07:05PM 23.9950 -80.9210 174° South 390 449 25,000 -720 Level FlightAware
07:06PM 23.9240 -80.9140 175° South 375 432 24,100 -1,800 Descending FlightAware
07:06PM 23.8660 -80.9080 175° South 359 413 22,800 -2,520 Descending FlightAware
07:07PM 23.8080 -80.9040 176° South 345 397 21,200 -2,640 Descending FlightAware
07:07PM 23.7850 -80.9140 202° Southwest 349 402 20,600 -1,680 Descending FlightAware
07:08PM 23.7410 -80.9480 215° Southwest 341 392 19,800 -1,320 Descending FlightAware
07:08PM 23.6950 -80.9840 216° Southwest 338 389 19,100 -1,200 Descending FlightAware
07:09PM 23.6540 -81.0160 216° Southwest 339 390 18,400 -1,380 Descending FlightAware
07:09PM 23.6100 -81.0510 216° Southwest 339 390 17,500 -1,680 Descending FlightAware
07:10PM 23.5520 -81.0950 215° Southwest 334 384 16,200 -960 Descending FlightAware
07:11PM 23.5100 -81.1270 215° Southwest 334 384 16,200 -1,440 Level FlightAware
07:11PM 23.5140 -81.1660 276° West 324 373 15,100 -2,700 Descending FlightAware
07:11PM 23.4980 -81.2080 247° West 315 362 14,400 -1,380 Descending FlightAware
07:12PM 23.4720 -81.2770 248° West 314 361 13,400 -1,260 Descending FlightAware
07:13PM 23.4530 -81.3270 248° West 307 353 12,800 -1,140 Descending FlightAware
07:13PM 23.4350 -81.3730 247° West 306 352 12,100 -1,320 Descending FlightAware
07:16PM 23.3237 -81.6338 245° Southwest  Level Estimated
07:17PM 23.2745 -81.7487 245° Southwest  Level Estimated
07:18PM 23.2251 -81.8635 245° Southwest  Level Estimated
07:19PM 23.1757 -81.9783 245° Southwest  Level Estimated
07:20PM 23.1262 -82.0929 245° Southwest  Level Estimated
07:21PM 23.0767 -82.2075 245° Southwest  Level Estimated
07:22PM 23.0270 -82.3220 245° Southwest  Level Estimated
07:23PM 22.9891 -82.4091 245° Southwest  Level Estimated
07:24PM 22.9891 -82.4091 51° Northeast  Level Estimated
07:25PM 22.9891 -82.4091 51° Northeast  Level Estimated
07:26PM 22.9891 -82.4091 51° Northeast  Level Estimated
07:27PM 22.9891 -82.4091 51° Northeast  Level Estimated
07:28PM 22.9891 -82.4091 51° Northeast  Level Estimated
07:29PM 22.9891 -82.4091 51° Northeast  Level Estimated
07:30PM 22.9891 -82.4091 51° Northeast  Level Estimated
07:31PM 22.9891 -82.4091 51° Northeast  Level Estimated
07:32PM 22.9891 -82.4091 51° Northeast  Level Estimated
07:33PM 22.9891 -82.4091 51° Northeast  Level Estimated
07:34PM 22.9891 -82.4091 51° Northeast  Level Estimated
07:35PM 22.9891 -82.4091 51° Northeast  Level Estimated
07:36PM 22.9891 -82.4091 51° Northeast  Level Estimated
07:37PM 22.9891 -82.4091 51° Northeast  Level Estimated
07:38PM 22.9891 -82.4091 51° Northeast  Level Estimated
07:39PM 22.9891 -82.4091 51° Northeast  Level Estimated
07:40PM 22.9891 -82.4091 51° Northeast  Level Estimated
07:41PM 22.9891 -82.4091 51° Northeast  Level Estimated
07:42PM 22.9891 -82.4091 51° Northeast  Level Estimated
07:43PM 22.9891 -82.4091 51° Northeast  Level Estimated
07:44PM 22.9891 -82.4091 51° Northeast  Level Estimated
07:45PM 22.9891 -82.4091 51° Northeast  Level Estimated